<?xml version="1.0" encoding="UTF-8" standalone="no" ?>
<gpx xmlns="http://www.topografix.com/GPX/1/1" xmlns:xsi="http://www.w3.org/2001/XMLSchema-instance" xsi:schemaLocation="http://www.topografix.com/GPX/1/1 http://www.topografix.com/GPX/1/1/gpx.xsd" version="1.1" creator="VisuGPX - https://www.visugpx.com">
  <metadata>
    <name>Eourres</name>
    <desc><![CDATA[04-05-2012]]></desc>
  </metadata>
  <trk>
    <name><![CDATA[ACTIVE LOG114856]]></name>
    <trkseg>
      <trkpt lat="44.21389" lon="5.69588">
        <ele>951.449</ele>
        <time>2012-05-04T09:48:56Z</time>
      </trkpt>
      <trkpt lat="44.21388" lon="5.6959">
        <ele>949.153</ele>
        <time>2012-05-04T09:49:00Z</time>
      </trkpt>
      <trkpt lat="44.21388" lon="5.6959">
        <ele>947.398</ele>
        <time>2012-05-04T09:49:03Z</time>
      </trkpt>
      <trkpt lat="44.21387" lon="5.69593">
        <ele>943.857</ele>
        <time>2012-05-04T09:49:08Z</time>
      </trkpt>
      <trkpt lat="44.21387" lon="5.69595">
        <ele>942.968</ele>
        <time>2012-05-04T09:49:10Z</time>
      </trkpt>
      <trkpt lat="44.21386" lon="5.69598">
        <ele>941.097</ele>
        <time>2012-05-04T09:49:14Z</time>
      </trkpt>
      <trkpt lat="44.21386" lon="5.69605">
        <ele>938.042</ele>
        <time>2012-05-04T09:49:21Z</time>
      </trkpt>
      <trkpt lat="44.21386" lon="5.6961">
        <ele>936.982</ele>
        <time>2012-05-04T09:49:25Z</time>
      </trkpt>
      <trkpt lat="44.21386" lon="5.69613">
        <ele>935.81</ele>
        <time>2012-05-04T09:49:27Z</time>
      </trkpt>
      <trkpt lat="44.21387" lon="5.69618">
        <ele>935.349</ele>
        <time>2012-05-04T09:49:31Z</time>
      </trkpt>
      <trkpt lat="44.21386" lon="5.69622">
        <ele>935.295</ele>
        <time>2012-05-04T09:49:33Z</time>
      </trkpt>
      <trkpt lat="44.21391" lon="5.69638">
        <ele>933.091</ele>
        <time>2012-05-04T09:49:50Z</time>
      </trkpt>
      <trkpt lat="44.21396" lon="5.69647">
        <ele>930.922</ele>
        <time>2012-05-04T09:50:01Z</time>
      </trkpt>
      <trkpt lat="44.21395" lon="5.69668">
        <ele>929.599</ele>
        <time>2012-05-04T09:50:16Z</time>
      </trkpt>
      <trkpt lat="44.21393" lon="5.6967">
        <ele>929.06</ele>
        <time>2012-05-04T09:50:25Z</time>
      </trkpt>
      <trkpt lat="44.21389" lon="5.69671">
        <ele>928.654</ele>
        <time>2012-05-04T09:50:36Z</time>
      </trkpt>
      <trkpt lat="44.21384" lon="5.69681">
        <ele>929.429</ele>
        <time>2012-05-04T09:50:44Z</time>
      </trkpt>
      <trkpt lat="44.21383" lon="5.69683">
        <ele>929.321</ele>
        <time>2012-05-04T09:50:47Z</time>
      </trkpt>
      <trkpt lat="44.21378" lon="5.69694">
        <ele>930.521</ele>
        <time>2012-05-04T09:50:59Z</time>
      </trkpt>
      <trkpt lat="44.21375" lon="5.69703">
        <ele>932.808</ele>
        <time>2012-05-04T09:51:08Z</time>
      </trkpt>
      <trkpt lat="44.2137" lon="5.69709">
        <ele>934.37</ele>
        <time>2012-05-04T09:51:20Z</time>
      </trkpt>
      <trkpt lat="44.21365" lon="5.69717">
        <ele>935.598</ele>
        <time>2012-05-04T09:51:29Z</time>
      </trkpt>
      <trkpt lat="44.21365" lon="5.6972">
        <ele>935.475</ele>
        <time>2012-05-04T09:51:33Z</time>
      </trkpt>
      <trkpt lat="44.21361" lon="5.69725">
        <ele>936.312</ele>
        <time>2012-05-04T09:51:40Z</time>
      </trkpt>
      <trkpt lat="44.21358" lon="5.69729">
        <ele>936.314</ele>
        <time>2012-05-04T09:51:43Z</time>
      </trkpt>
      <trkpt lat="44.21357" lon="5.69734">
        <ele>936.868</ele>
        <time>2012-05-04T09:51:48Z</time>
      </trkpt>
      <trkpt lat="44.21354" lon="5.69742">
        <ele>937.63</ele>
        <time>2012-05-04T09:51:54Z</time>
      </trkpt>
      <trkpt lat="44.21353" lon="5.69746">
        <ele>937.805</ele>
        <time>2012-05-04T09:51:57Z</time>
      </trkpt>
      <trkpt lat="44.2135" lon="5.69754">
        <ele>938.761</ele>
        <time>2012-05-04T09:52:03Z</time>
      </trkpt>
      <trkpt lat="44.2135" lon="5.6976">
        <ele>939.343</ele>
        <time>2012-05-04T09:52:07Z</time>
      </trkpt>
      <trkpt lat="44.21347" lon="5.69764">
        <ele>939.546</ele>
        <time>2012-05-04T09:52:11Z</time>
      </trkpt>
      <trkpt lat="44.21341" lon="5.69767">
        <ele>940.146</ele>
        <time>2012-05-04T09:52:16Z</time>
      </trkpt>
      <trkpt lat="44.21333" lon="5.69777">
        <ele>942.288</ele>
        <time>2012-05-04T09:52:26Z</time>
      </trkpt>
      <trkpt lat="44.21323" lon="5.69784">
        <ele>943.258</ele>
        <time>2012-05-04T09:52:39Z</time>
      </trkpt>
      <trkpt lat="44.21315" lon="5.69792">
        <ele>945.075</ele>
        <time>2012-05-04T09:52:49Z</time>
      </trkpt>
      <trkpt lat="44.21313" lon="5.69794">
        <ele>945.592</ele>
        <time>2012-05-04T09:52:53Z</time>
      </trkpt>
      <trkpt lat="44.21306" lon="5.698">
        <ele>946.636</ele>
        <time>2012-05-04T09:53:04Z</time>
      </trkpt>
      <trkpt lat="44.21302" lon="5.69808">
        <ele>949.42</ele>
        <time>2012-05-04T09:53:17Z</time>
      </trkpt>
      <trkpt lat="44.21293" lon="5.6981">
        <ele>950.294</ele>
        <time>2012-05-04T09:53:37Z</time>
      </trkpt>
      <trkpt lat="44.21288" lon="5.69811">
        <ele>951.095</ele>
        <time>2012-05-04T09:53:44Z</time>
      </trkpt>
      <trkpt lat="44.21282" lon="5.69811">
        <ele>953.305</ele>
        <time>2012-05-04T09:53:54Z</time>
      </trkpt>
      <trkpt lat="44.21277" lon="5.69822">
        <ele>952.68</ele>
        <time>2012-05-04T09:54:01Z</time>
      </trkpt>
      <trkpt lat="44.21274" lon="5.69829">
        <ele>954.08</ele>
        <time>2012-05-04T09:54:05Z</time>
      </trkpt>
      <trkpt lat="44.21271" lon="5.69841">
        <ele>953.943</ele>
        <time>2012-05-04T09:54:15Z</time>
      </trkpt>
      <trkpt lat="44.2127" lon="5.6985">
        <ele>954.414</ele>
        <time>2012-05-04T09:54:23Z</time>
      </trkpt>
      <trkpt lat="44.2127" lon="5.69866">
        <ele>955.125</ele>
        <time>2012-05-04T09:54:36Z</time>
      </trkpt>
      <trkpt lat="44.21266" lon="5.69874">
        <ele>955.613</ele>
        <time>2012-05-04T09:54:41Z</time>
      </trkpt>
      <trkpt lat="44.21272" lon="5.69869">
        <ele>955.92</ele>
        <time>2012-05-04T09:54:43Z</time>
      </trkpt>
      <trkpt lat="44.21268" lon="5.69878">
        <ele>955.671</ele>
        <time>2012-05-04T09:54:50Z</time>
      </trkpt>
      <trkpt lat="44.21267" lon="5.69885">
        <ele>957.434</ele>
        <time>2012-05-04T09:54:54Z</time>
      </trkpt>
      <trkpt lat="44.21258" lon="5.69903">
        <ele>958.616</ele>
        <time>2012-05-04T09:55:08Z</time>
      </trkpt>
      <trkpt lat="44.21255" lon="5.69912">
        <ele>959.666</ele>
        <time>2012-05-04T09:55:24Z</time>
      </trkpt>
      <trkpt lat="44.21251" lon="5.6992">
        <ele>960.071</ele>
        <time>2012-05-04T09:55:56Z</time>
      </trkpt>
      <trkpt lat="44.21244" lon="5.69929">
        <ele>961.819</ele>
        <time>2012-05-04T09:56:05Z</time>
      </trkpt>
      <trkpt lat="44.21236" lon="5.69941">
        <ele>962.85</ele>
        <time>2012-05-04T09:56:18Z</time>
      </trkpt>
      <trkpt lat="44.21237" lon="5.69941">
        <ele>963</ele>
        <time>2012-05-04T09:56:23Z</time>
      </trkpt>
      <trkpt lat="44.2124" lon="5.69942">
        <ele>962.756</ele>
        <time>2012-05-04T09:56:27Z</time>
      </trkpt>
      <trkpt lat="44.21247" lon="5.69949">
        <ele>964.222</ele>
        <time>2012-05-04T09:56:36Z</time>
      </trkpt>
      <trkpt lat="44.21251" lon="5.6996">
        <ele>966.009</ele>
        <time>2012-05-04T09:56:49Z</time>
      </trkpt>
      <trkpt lat="44.21253" lon="5.69975">
        <ele>967.911</ele>
        <time>2012-05-04T09:57:06Z</time>
      </trkpt>
      <trkpt lat="44.21257" lon="5.69985">
        <ele>969.413</ele>
        <time>2012-05-04T09:57:17Z</time>
      </trkpt>
      <trkpt lat="44.21259" lon="5.69995">
        <ele>971.261</ele>
        <time>2012-05-04T09:57:28Z</time>
      </trkpt>
      <trkpt lat="44.21261" lon="5.70005">
        <ele>972.433</ele>
        <time>2012-05-04T09:57:38Z</time>
      </trkpt>
      <trkpt lat="44.21265" lon="5.70015">
        <ele>973.83</ele>
        <time>2012-05-04T09:57:49Z</time>
      </trkpt>
      <trkpt lat="44.21264" lon="5.70026">
        <ele>975.974</ele>
        <time>2012-05-04T09:58:00Z</time>
      </trkpt>
      <trkpt lat="44.21267" lon="5.70035">
        <ele>977.619</ele>
        <time>2012-05-04T09:58:13Z</time>
      </trkpt>
      <trkpt lat="44.21265" lon="5.7004">
        <ele>978.108</ele>
        <time>2012-05-04T09:58:19Z</time>
      </trkpt>
      <trkpt lat="44.21263" lon="5.7005">
        <ele>980.036</ele>
        <time>2012-05-04T09:58:28Z</time>
      </trkpt>
      <trkpt lat="44.2126" lon="5.70056">
        <ele>980.82</ele>
        <time>2012-05-04T09:58:34Z</time>
      </trkpt>
      <trkpt lat="44.21255" lon="5.70067">
        <ele>982.63</ele>
        <time>2012-05-04T09:58:47Z</time>
      </trkpt>
      <trkpt lat="44.2125" lon="5.70073">
        <ele>984.729</ele>
        <time>2012-05-04T09:58:57Z</time>
      </trkpt>
      <trkpt lat="44.21247" lon="5.70082">
        <ele>986.217</ele>
        <time>2012-05-04T09:59:07Z</time>
      </trkpt>
      <trkpt lat="44.21245" lon="5.7009">
        <ele>987.56</ele>
        <time>2012-05-04T09:59:16Z</time>
      </trkpt>
      <trkpt lat="44.21247" lon="5.701">
        <ele>988.608</ele>
        <time>2012-05-04T09:59:25Z</time>
      </trkpt>
      <trkpt lat="44.2125" lon="5.70106">
        <ele>989.918</ele>
        <time>2012-05-04T09:59:33Z</time>
      </trkpt>
      <trkpt lat="44.21251" lon="5.70109">
        <ele>990.319</ele>
        <time>2012-05-04T09:59:47Z</time>
      </trkpt>
      <trkpt lat="44.21251" lon="5.70117">
        <ele>992.101</ele>
        <time>2012-05-04T10:00:06Z</time>
      </trkpt>
      <trkpt lat="44.2125" lon="5.70128">
        <ele>994.364</ele>
        <time>2012-05-04T10:00:18Z</time>
      </trkpt>
      <trkpt lat="44.21251" lon="5.70132">
        <ele>995.122</ele>
        <time>2012-05-04T10:00:38Z</time>
      </trkpt>
      <trkpt lat="44.21252" lon="5.70137">
        <ele>996.268</ele>
        <time>2012-05-04T10:00:52Z</time>
      </trkpt>
      <trkpt lat="44.21247" lon="5.70145">
        <ele>998.038</ele>
        <time>2012-05-04T10:01:01Z</time>
      </trkpt>
      <trkpt lat="44.21247" lon="5.70156">
        <ele>999.167</ele>
        <time>2012-05-04T10:01:11Z</time>
      </trkpt>
      <trkpt lat="44.21248" lon="5.70166">
        <ele>1000.539</ele>
        <time>2012-05-04T10:01:21Z</time>
      </trkpt>
      <trkpt lat="44.21246" lon="5.70178">
        <ele>1002.392</ele>
        <time>2012-05-04T10:01:31Z</time>
      </trkpt>
      <trkpt lat="44.21244" lon="5.70189">
        <ele>1003.779</ele>
        <time>2012-05-04T10:01:42Z</time>
      </trkpt>
      <trkpt lat="44.21236" lon="5.70188">
        <ele>1004.697</ele>
        <time>2012-05-04T10:01:53Z</time>
      </trkpt>
      <trkpt lat="44.21237" lon="5.70191">
        <ele>1004.605</ele>
        <time>2012-05-04T10:02:08Z</time>
      </trkpt>
      <trkpt lat="44.21246" lon="5.70186">
        <ele>1003.433</ele>
        <time>2012-05-04T10:02:21Z</time>
      </trkpt>
      <trkpt lat="44.21247" lon="5.70183">
        <ele>1002.755</ele>
        <time>2012-05-04T10:02:24Z</time>
      </trkpt>
      <trkpt lat="44.21248" lon="5.7018">
        <ele>1002.336</ele>
        <time>2012-05-04T10:02:26Z</time>
      </trkpt>
      <trkpt lat="44.21248" lon="5.70153">
        <ele>999.196</ele>
        <time>2012-05-04T10:02:44Z</time>
      </trkpt>
      <trkpt lat="44.21252" lon="5.70133">
        <ele>996.389</ele>
        <time>2012-05-04T10:02:58Z</time>
      </trkpt>
      <trkpt lat="44.21249" lon="5.70119">
        <ele>993.145</ele>
        <time>2012-05-04T10:03:12Z</time>
      </trkpt>
      <trkpt lat="44.2125" lon="5.7011">
        <ele>990.953</ele>
        <time>2012-05-04T10:03:21Z</time>
      </trkpt>
      <trkpt lat="44.21254" lon="5.70111">
        <ele>990.671</ele>
        <time>2012-05-04T10:03:23Z</time>
      </trkpt>
      <trkpt lat="44.21259" lon="5.70114">
        <ele>990.722</ele>
        <time>2012-05-04T10:03:28Z</time>
      </trkpt>
      <trkpt lat="44.21263" lon="5.70118">
        <ele>990.678</ele>
        <time>2012-05-04T10:03:34Z</time>
      </trkpt>
      <trkpt lat="44.21266" lon="5.70121">
        <ele>990.916</ele>
        <time>2012-05-04T10:03:38Z</time>
      </trkpt>
      <trkpt lat="44.21273" lon="5.70128">
        <ele>990.81</ele>
        <time>2012-05-04T10:03:46Z</time>
      </trkpt>
      <trkpt lat="44.21277" lon="5.70132">
        <ele>990.508</ele>
        <time>2012-05-04T10:03:50Z</time>
      </trkpt>
      <trkpt lat="44.21278" lon="5.70136">
        <ele>990.236</ele>
        <time>2012-05-04T10:03:53Z</time>
      </trkpt>
      <trkpt lat="44.2128" lon="5.70139">
        <ele>990.563</ele>
        <time>2012-05-04T10:03:57Z</time>
      </trkpt>
      <trkpt lat="44.21281" lon="5.70142">
        <ele>989.821</ele>
        <time>2012-05-04T10:03:59Z</time>
      </trkpt>
      <trkpt lat="44.21283" lon="5.70149">
        <ele>989.254</ele>
        <time>2012-05-04T10:04:03Z</time>
      </trkpt>
      <trkpt lat="44.21287" lon="5.70155">
        <ele>989.464</ele>
        <time>2012-05-04T10:04:08Z</time>
      </trkpt>
      <trkpt lat="44.21289" lon="5.70158">
        <ele>989.43</ele>
        <time>2012-05-04T10:04:10Z</time>
      </trkpt>
      <trkpt lat="44.21294" lon="5.7017">
        <ele>989.144</ele>
        <time>2012-05-04T10:04:19Z</time>
      </trkpt>
      <trkpt lat="44.21299" lon="5.7018">
        <ele>989.012</ele>
        <time>2012-05-04T10:04:25Z</time>
      </trkpt>
      <trkpt lat="44.213" lon="5.70182">
        <ele>989.329</ele>
        <time>2012-05-04T10:04:27Z</time>
      </trkpt>
      <trkpt lat="44.21298" lon="5.70204">
        <ele>989.51</ele>
        <time>2012-05-04T10:04:39Z</time>
      </trkpt>
      <trkpt lat="44.21296" lon="5.70215">
        <ele>989.877</ele>
        <time>2012-05-04T10:04:47Z</time>
      </trkpt>
      <trkpt lat="44.21295" lon="5.70232">
        <ele>990.411</ele>
        <time>2012-05-04T10:04:59Z</time>
      </trkpt>
      <trkpt lat="44.21303" lon="5.70238">
        <ele>991.6</ele>
        <time>2012-05-04T10:05:11Z</time>
      </trkpt>
      <trkpt lat="44.21305" lon="5.7024">
        <ele>991.94</ele>
        <time>2012-05-04T10:05:13Z</time>
      </trkpt>
      <trkpt lat="44.21309" lon="5.70245">
        <ele>993.067</ele>
        <time>2012-05-04T10:05:21Z</time>
      </trkpt>
      <trkpt lat="44.21313" lon="5.70249">
        <ele>994.192</ele>
        <time>2012-05-04T10:05:27Z</time>
      </trkpt>
      <trkpt lat="44.21318" lon="5.70254">
        <ele>995.084</ele>
        <time>2012-05-04T10:05:35Z</time>
      </trkpt>
      <trkpt lat="44.21324" lon="5.70259">
        <ele>996.517</ele>
        <time>2012-05-04T10:05:45Z</time>
      </trkpt>
      <trkpt lat="44.2133" lon="5.70262">
        <ele>997.836</ele>
        <time>2012-05-04T10:05:56Z</time>
      </trkpt>
      <trkpt lat="44.21331" lon="5.70262">
        <ele>998.04</ele>
        <time>2012-05-04T10:05:57Z</time>
      </trkpt>
      <trkpt lat="44.21337" lon="5.70263">
        <ele>999.01</ele>
        <time>2012-05-04T10:06:07Z</time>
      </trkpt>
      <trkpt lat="44.21339" lon="5.70263">
        <ele>999.401</ele>
        <time>2012-05-04T10:06:09Z</time>
      </trkpt>
      <trkpt lat="44.2135" lon="5.70261">
        <ele>1000.636</ele>
        <time>2012-05-04T10:06:21Z</time>
      </trkpt>
      <trkpt lat="44.21351" lon="5.70262">
        <ele>1000.524</ele>
        <time>2012-05-04T10:06:23Z</time>
      </trkpt>
      <trkpt lat="44.21362" lon="5.70265">
        <ele>1002.249</ele>
        <time>2012-05-04T10:06:36Z</time>
      </trkpt>
      <trkpt lat="44.21368" lon="5.70266">
        <ele>1003.138</ele>
        <time>2012-05-04T10:06:43Z</time>
      </trkpt>
      <trkpt lat="44.21376" lon="5.70267">
        <ele>1003.806</ele>
        <time>2012-05-04T10:06:52Z</time>
      </trkpt>
      <trkpt lat="44.21387" lon="5.70269">
        <ele>1004.966</ele>
        <time>2012-05-04T10:07:00Z</time>
      </trkpt>
      <trkpt lat="44.21389" lon="5.7027">
        <ele>1004.936</ele>
        <time>2012-05-04T10:07:02Z</time>
      </trkpt>
      <trkpt lat="44.214" lon="5.70276">
        <ele>1005.152</ele>
        <time>2012-05-04T10:07:13Z</time>
      </trkpt>
      <trkpt lat="44.21402" lon="5.70276">
        <ele>1005.722</ele>
        <time>2012-05-04T10:07:15Z</time>
      </trkpt>
      <trkpt lat="44.21412" lon="5.70281">
        <ele>1006.758</ele>
        <time>2012-05-04T10:07:25Z</time>
      </trkpt>
      <trkpt lat="44.21414" lon="5.70281">
        <ele>1007.007</ele>
        <time>2012-05-04T10:07:27Z</time>
      </trkpt>
      <trkpt lat="44.21421" lon="5.70289">
        <ele>1008.971</ele>
        <time>2012-05-04T10:07:39Z</time>
      </trkpt>
      <trkpt lat="44.21424" lon="5.70292">
        <ele>1008.991</ele>
        <time>2012-05-04T10:07:43Z</time>
      </trkpt>
      <trkpt lat="44.21433" lon="5.703">
        <ele>1009.898</ele>
        <time>2012-05-04T10:07:51Z</time>
      </trkpt>
      <trkpt lat="44.21441" lon="5.7031">
        <ele>1010.723</ele>
        <time>2012-05-04T10:08:03Z</time>
      </trkpt>
      <trkpt lat="44.21441" lon="5.70312">
        <ele>1010.768</ele>
        <time>2012-05-04T10:08:04Z</time>
      </trkpt>
      <trkpt lat="44.21445" lon="5.70316">
        <ele>1011.065</ele>
        <time>2012-05-04T10:08:07Z</time>
      </trkpt>
      <trkpt lat="44.21451" lon="5.70324">
        <ele>1011.791</ele>
        <time>2012-05-04T10:08:15Z</time>
      </trkpt>
      <trkpt lat="44.21455" lon="5.70331">
        <ele>1012.855</ele>
        <time>2012-05-04T10:08:22Z</time>
      </trkpt>
      <trkpt lat="44.21461" lon="5.70336">
        <ele>1013.781</ele>
        <time>2012-05-04T10:08:31Z</time>
      </trkpt>
      <trkpt lat="44.21462" lon="5.70337">
        <ele>1014.483</ele>
        <time>2012-05-04T10:08:32Z</time>
      </trkpt>
      <trkpt lat="44.21463" lon="5.7034">
        <ele>1014.341</ele>
        <time>2012-05-04T10:08:34Z</time>
      </trkpt>
      <trkpt lat="44.21464" lon="5.70345">
        <ele>1014.899</ele>
        <time>2012-05-04T10:08:38Z</time>
      </trkpt>
      <trkpt lat="44.21467" lon="5.70349">
        <ele>1015.195</ele>
        <time>2012-05-04T10:08:41Z</time>
      </trkpt>
      <trkpt lat="44.21472" lon="5.70358">
        <ele>1016.232</ele>
        <time>2012-05-04T10:08:51Z</time>
      </trkpt>
      <trkpt lat="44.21477" lon="5.70366">
        <ele>1017.27</ele>
        <time>2012-05-04T10:09:00Z</time>
      </trkpt>
      <trkpt lat="44.2148" lon="5.70381">
        <ele>1018.049</ele>
        <time>2012-05-04T10:09:11Z</time>
      </trkpt>
      <trkpt lat="44.21481" lon="5.70383">
        <ele>1018.425</ele>
        <time>2012-05-04T10:09:13Z</time>
      </trkpt>
      <trkpt lat="44.21483" lon="5.70385">
        <ele>1018.717</ele>
        <time>2012-05-04T10:09:15Z</time>
      </trkpt>
      <trkpt lat="44.21485" lon="5.70386">
        <ele>1018.895</ele>
        <time>2012-05-04T10:09:17Z</time>
      </trkpt>
      <trkpt lat="44.21487" lon="5.70394">
        <ele>1019.229</ele>
        <time>2012-05-04T10:09:24Z</time>
      </trkpt>
      <trkpt lat="44.21491" lon="5.70406">
        <ele>1019.525</ele>
        <time>2012-05-04T10:09:34Z</time>
      </trkpt>
      <trkpt lat="44.21502" lon="5.70419">
        <ele>1020.265</ele>
        <time>2012-05-04T10:09:46Z</time>
      </trkpt>
      <trkpt lat="44.21507" lon="5.70437">
        <ele>1021.617</ele>
        <time>2012-05-04T10:09:59Z</time>
      </trkpt>
      <trkpt lat="44.21514" lon="5.70444">
        <ele>1022.727</ele>
        <time>2012-05-04T10:10:07Z</time>
      </trkpt>
      <trkpt lat="44.21516" lon="5.70455">
        <ele>1024.024</ele>
        <time>2012-05-04T10:10:18Z</time>
      </trkpt>
      <trkpt lat="44.21518" lon="5.70466">
        <ele>1025.338</ele>
        <time>2012-05-04T10:10:29Z</time>
      </trkpt>
      <trkpt lat="44.21522" lon="5.70473">
        <ele>1026.841</ele>
        <time>2012-05-04T10:10:39Z</time>
      </trkpt>
      <trkpt lat="44.21529" lon="5.70483">
        <ele>1028.489</ele>
        <time>2012-05-04T10:10:51Z</time>
      </trkpt>
      <trkpt lat="44.21533" lon="5.70496">
        <ele>1029.563</ele>
        <time>2012-05-04T10:11:00Z</time>
      </trkpt>
      <trkpt lat="44.21534" lon="5.70511">
        <ele>1031.48</ele>
        <time>2012-05-04T10:11:13Z</time>
      </trkpt>
      <trkpt lat="44.21542" lon="5.70522">
        <ele>1033.586</ele>
        <time>2012-05-04T10:11:25Z</time>
      </trkpt>
      <trkpt lat="44.21545" lon="5.70523">
        <ele>1033.781</ele>
        <time>2012-05-04T10:11:28Z</time>
      </trkpt>
      <trkpt lat="44.2155" lon="5.70525">
        <ele>1033.823</ele>
        <time>2012-05-04T10:11:31Z</time>
      </trkpt>
      <trkpt lat="44.21553" lon="5.7053">
        <ele>1035.29</ele>
        <time>2012-05-04T10:11:40Z</time>
      </trkpt>
      <trkpt lat="44.21559" lon="5.70545">
        <ele>1036.765</ele>
        <time>2012-05-04T10:11:55Z</time>
      </trkpt>
      <trkpt lat="44.21554" lon="5.70559">
        <ele>1037.166</ele>
        <time>2012-05-04T10:12:04Z</time>
      </trkpt>
      <trkpt lat="44.21552" lon="5.70572">
        <ele>1036.99</ele>
        <time>2012-05-04T10:12:14Z</time>
      </trkpt>
      <trkpt lat="44.21548" lon="5.70584">
        <ele>1037.017</ele>
        <time>2012-05-04T10:12:20Z</time>
      </trkpt>
      <trkpt lat="44.21548" lon="5.70589">
        <ele>1037.342</ele>
        <time>2012-05-04T10:12:23Z</time>
      </trkpt>
      <trkpt lat="44.2155" lon="5.70607">
        <ele>1038.428</ele>
        <time>2012-05-04T10:12:35Z</time>
      </trkpt>
      <trkpt lat="44.21551" lon="5.70619">
        <ele>1038.947</ele>
        <time>2012-05-04T10:12:46Z</time>
      </trkpt>
      <trkpt lat="44.21555" lon="5.70625">
        <ele>1039.501</ele>
        <time>2012-05-04T10:12:51Z</time>
      </trkpt>
      <trkpt lat="44.21558" lon="5.70629">
        <ele>1040.39</ele>
        <time>2012-05-04T10:12:55Z</time>
      </trkpt>
      <trkpt lat="44.21562" lon="5.70641">
        <ele>1040.92</ele>
        <time>2012-05-04T10:13:05Z</time>
      </trkpt>
      <trkpt lat="44.21562" lon="5.70642">
        <ele>1040.76</ele>
        <time>2012-05-04T10:13:17Z</time>
      </trkpt>
      <trkpt lat="44.21561" lon="5.70655">
        <ele>1041.436</ele>
        <time>2012-05-04T10:13:35Z</time>
      </trkpt>
      <trkpt lat="44.21566" lon="5.70662">
        <ele>1042.607</ele>
        <time>2012-05-04T10:13:42Z</time>
      </trkpt>
      <trkpt lat="44.21571" lon="5.70672">
        <ele>1044.464</ele>
        <time>2012-05-04T10:13:54Z</time>
      </trkpt>
      <trkpt lat="44.21581" lon="5.70683">
        <ele>1047.378</ele>
        <time>2012-05-04T10:14:08Z</time>
      </trkpt>
      <trkpt lat="44.21584" lon="5.70691">
        <ele>1047.755</ele>
        <time>2012-05-04T10:14:17Z</time>
      </trkpt>
      <trkpt lat="44.21584" lon="5.70692">
        <ele>1047.755</ele>
        <time>2012-05-04T10:14:18Z</time>
      </trkpt>
      <trkpt lat="44.21587" lon="5.70704">
        <ele>1049.238</ele>
        <time>2012-05-04T10:14:29Z</time>
      </trkpt>
      <trkpt lat="44.21592" lon="5.70713">
        <ele>1051.026</ele>
        <time>2012-05-04T10:14:42Z</time>
      </trkpt>
      <trkpt lat="44.21594" lon="5.70717">
        <ele>1051.276</ele>
        <time>2012-05-04T10:14:47Z</time>
      </trkpt>
      <trkpt lat="44.21601" lon="5.70732">
        <ele>1053.825</ele>
        <time>2012-05-04T10:15:01Z</time>
      </trkpt>
      <trkpt lat="44.21605" lon="5.70744">
        <ele>1055.263</ele>
        <time>2012-05-04T10:15:14Z</time>
      </trkpt>
      <trkpt lat="44.21605" lon="5.70748">
        <ele>1055.535</ele>
        <time>2012-05-04T10:15:16Z</time>
      </trkpt>
      <trkpt lat="44.21605" lon="5.70762">
        <ele>1057.017</ele>
        <time>2012-05-04T10:15:26Z</time>
      </trkpt>
      <trkpt lat="44.21602" lon="5.70773">
        <ele>1057.963</ele>
        <time>2012-05-04T10:15:39Z</time>
      </trkpt>
      <trkpt lat="44.216" lon="5.70784">
        <ele>1059.028</ele>
        <time>2012-05-04T10:15:49Z</time>
      </trkpt>
      <trkpt lat="44.21596" lon="5.708">
        <ele>1060.944</ele>
        <time>2012-05-04T10:16:02Z</time>
      </trkpt>
      <trkpt lat="44.21599" lon="5.70811">
        <ele>1062.326</ele>
        <time>2012-05-04T10:16:14Z</time>
      </trkpt>
      <trkpt lat="44.216" lon="5.70813">
        <ele>1062.219</ele>
        <time>2012-05-04T10:16:29Z</time>
      </trkpt>
      <trkpt lat="44.21599" lon="5.70823">
        <ele>1063.734</ele>
        <time>2012-05-04T10:16:44Z</time>
      </trkpt>
      <trkpt lat="44.21601" lon="5.70829">
        <ele>1064.541</ele>
        <time>2012-05-04T10:16:54Z</time>
      </trkpt>
      <trkpt lat="44.21599" lon="5.70844">
        <ele>1065.94</ele>
        <time>2012-05-04T10:17:05Z</time>
      </trkpt>
      <trkpt lat="44.21599" lon="5.70855">
        <ele>1066.796</ele>
        <time>2012-05-04T10:17:14Z</time>
      </trkpt>
      <trkpt lat="44.21592" lon="5.70867">
        <ele>1067.587</ele>
        <time>2012-05-04T10:17:23Z</time>
      </trkpt>
      <trkpt lat="44.21592" lon="5.70877">
        <ele>1067.278</ele>
        <time>2012-05-04T10:17:33Z</time>
      </trkpt>
      <trkpt lat="44.21591" lon="5.70888">
        <ele>1068.529</ele>
        <time>2012-05-04T10:17:41Z</time>
      </trkpt>
      <trkpt lat="44.21588" lon="5.70905">
        <ele>1069.48</ele>
        <time>2012-05-04T10:17:53Z</time>
      </trkpt>
      <trkpt lat="44.21584" lon="5.70917">
        <ele>1071.818</ele>
        <time>2012-05-04T10:18:08Z</time>
      </trkpt>
      <trkpt lat="44.21573" lon="5.70928">
        <ele>1072.825</ele>
        <time>2012-05-04T10:18:18Z</time>
      </trkpt>
      <trkpt lat="44.21567" lon="5.70936">
        <ele>1073.772</ele>
        <time>2012-05-04T10:18:28Z</time>
      </trkpt>
      <trkpt lat="44.21567" lon="5.7094">
        <ele>1074.084</ele>
        <time>2012-05-04T10:18:37Z</time>
      </trkpt>
      <trkpt lat="44.21562" lon="5.70947">
        <ele>1074.849</ele>
        <time>2012-05-04T10:18:49Z</time>
      </trkpt>
      <trkpt lat="44.2156" lon="5.70952">
        <ele>1075.21</ele>
        <time>2012-05-04T10:18:53Z</time>
      </trkpt>
      <trkpt lat="44.21552" lon="5.70965">
        <ele>1076.282</ele>
        <time>2012-05-04T10:19:02Z</time>
      </trkpt>
      <trkpt lat="44.21546" lon="5.70976">
        <ele>1077.052</ele>
        <time>2012-05-04T10:19:12Z</time>
      </trkpt>
      <trkpt lat="44.21539" lon="5.70983">
        <ele>1078.305</ele>
        <time>2012-05-04T10:19:22Z</time>
      </trkpt>
      <trkpt lat="44.21536" lon="5.7099">
        <ele>1079.375</ele>
        <time>2012-05-04T10:19:37Z</time>
      </trkpt>
      <trkpt lat="44.21526" lon="5.70999">
        <ele>1081.464</ele>
        <time>2012-05-04T10:19:49Z</time>
      </trkpt>
      <trkpt lat="44.21523" lon="5.71003">
        <ele>1081.842</ele>
        <time>2012-05-04T10:19:54Z</time>
      </trkpt>
      <trkpt lat="44.2152" lon="5.71003">
        <ele>1082.328</ele>
        <time>2012-05-04T10:19:57Z</time>
      </trkpt>
      <trkpt lat="44.21512" lon="5.71013">
        <ele>1084.246</ele>
        <time>2012-05-04T10:20:09Z</time>
      </trkpt>
      <trkpt lat="44.21506" lon="5.71015">
        <ele>1084.783</ele>
        <time>2012-05-04T10:20:18Z</time>
      </trkpt>
      <trkpt lat="44.21499" lon="5.71017">
        <ele>1085.665</ele>
        <time>2012-05-04T10:20:29Z</time>
      </trkpt>
      <trkpt lat="44.21495" lon="5.71019">
        <ele>1086.308</ele>
        <time>2012-05-04T10:20:32Z</time>
      </trkpt>
      <trkpt lat="44.21481" lon="5.71023">
        <ele>1087.24</ele>
        <time>2012-05-04T10:20:43Z</time>
      </trkpt>
      <trkpt lat="44.21478" lon="5.71023">
        <ele>1087.871</ele>
        <time>2012-05-04T10:20:49Z</time>
      </trkpt>
      <trkpt lat="44.21469" lon="5.71023">
        <ele>1088.84</ele>
        <time>2012-05-04T10:20:57Z</time>
      </trkpt>
      <trkpt lat="44.21456" lon="5.71024">
        <ele>1089.652</ele>
        <time>2012-05-04T10:21:08Z</time>
      </trkpt>
      <trkpt lat="44.21449" lon="5.71025">
        <ele>1091.295</ele>
        <time>2012-05-04T10:21:16Z</time>
      </trkpt>
      <trkpt lat="44.21444" lon="5.71025">
        <ele>1092.244</ele>
        <time>2012-05-04T10:21:24Z</time>
      </trkpt>
      <trkpt lat="44.21432" lon="5.71019">
        <ele>1095.034</ele>
        <time>2012-05-04T10:21:39Z</time>
      </trkpt>
      <trkpt lat="44.21426" lon="5.71017">
        <ele>1095.925</ele>
        <time>2012-05-04T10:21:48Z</time>
      </trkpt>
      <trkpt lat="44.21416" lon="5.71018">
        <ele>1096.802</ele>
        <time>2012-05-04T10:21:58Z</time>
      </trkpt>
      <trkpt lat="44.21409" lon="5.71015">
        <ele>1097.25</ele>
        <time>2012-05-04T10:22:06Z</time>
      </trkpt>
      <trkpt lat="44.214" lon="5.71012">
        <ele>1099.441</ele>
        <time>2012-05-04T10:22:17Z</time>
      </trkpt>
      <trkpt lat="44.21393" lon="5.7101">
        <ele>1101.237</ele>
        <time>2012-05-04T10:22:28Z</time>
      </trkpt>
      <trkpt lat="44.21386" lon="5.71008">
        <ele>1102.447</ele>
        <time>2012-05-04T10:22:35Z</time>
      </trkpt>
      <trkpt lat="44.2138" lon="5.71004">
        <ele>1104.281</ele>
        <time>2012-05-04T10:22:44Z</time>
      </trkpt>
      <trkpt lat="44.21376" lon="5.71005">
        <ele>1104.157</ele>
        <time>2012-05-04T10:23:01Z</time>
      </trkpt>
      <trkpt lat="44.21373" lon="5.71006">
        <ele>1104.135</ele>
        <time>2012-05-04T10:23:05Z</time>
      </trkpt>
      <trkpt lat="44.21365" lon="5.71003">
        <ele>1104.585</ele>
        <time>2012-05-04T10:23:16Z</time>
      </trkpt>
      <trkpt lat="44.21352" lon="5.71011">
        <ele>1106.03</ele>
        <time>2012-05-04T10:23:28Z</time>
      </trkpt>
      <trkpt lat="44.21344" lon="5.71013">
        <ele>1106.248</ele>
        <time>2012-05-04T10:23:37Z</time>
      </trkpt>
      <trkpt lat="44.21333" lon="5.71018">
        <ele>1107.371</ele>
        <time>2012-05-04T10:23:46Z</time>
      </trkpt>
      <trkpt lat="44.2133" lon="5.7102">
        <ele>1107.866</ele>
        <time>2012-05-04T10:23:54Z</time>
      </trkpt>
      <trkpt lat="44.21322" lon="5.71027">
        <ele>1109.457</ele>
        <time>2012-05-04T10:24:06Z</time>
      </trkpt>
      <trkpt lat="44.21322" lon="5.71028">
        <ele>1109.787</ele>
        <time>2012-05-04T10:24:07Z</time>
      </trkpt>
      <trkpt lat="44.21315" lon="5.71039">
        <ele>1110.721</ele>
        <time>2012-05-04T10:24:16Z</time>
      </trkpt>
      <trkpt lat="44.21307" lon="5.71049">
        <ele>1111.929</ele>
        <time>2012-05-04T10:24:25Z</time>
      </trkpt>
      <trkpt lat="44.21303" lon="5.71055">
        <ele>1112.455</ele>
        <time>2012-05-04T10:24:31Z</time>
      </trkpt>
      <trkpt lat="44.21299" lon="5.71058">
        <ele>1112.747</ele>
        <time>2012-05-04T10:24:34Z</time>
      </trkpt>
      <trkpt lat="44.21291" lon="5.71067">
        <ele>1113.157</ele>
        <time>2012-05-04T10:24:44Z</time>
      </trkpt>
      <trkpt lat="44.21291" lon="5.71068">
        <ele>1113.565</ele>
        <time>2012-05-04T10:24:46Z</time>
      </trkpt>
      <trkpt lat="44.21288" lon="5.71069">
        <ele>1113.77</ele>
        <time>2012-05-04T10:24:48Z</time>
      </trkpt>
      <trkpt lat="44.21286" lon="5.71072">
        <ele>1114.212</ele>
        <time>2012-05-04T10:24:52Z</time>
      </trkpt>
      <trkpt lat="44.21275" lon="5.71075">
        <ele>1115.194</ele>
        <time>2012-05-04T10:25:01Z</time>
      </trkpt>
      <trkpt lat="44.21272" lon="5.71078">
        <ele>1115.842</ele>
        <time>2012-05-04T10:25:08Z</time>
      </trkpt>
      <trkpt lat="44.21264" lon="5.71083">
        <ele>1116.576</ele>
        <time>2012-05-04T10:25:17Z</time>
      </trkpt>
      <trkpt lat="44.21262" lon="5.71084">
        <ele>1117.082</ele>
        <time>2012-05-04T10:25:19Z</time>
      </trkpt>
      <trkpt lat="44.21251" lon="5.71087">
        <ele>1117.61</ele>
        <time>2012-05-04T10:25:29Z</time>
      </trkpt>
      <trkpt lat="44.2124" lon="5.71091">
        <ele>1118.662</ele>
        <time>2012-05-04T10:25:38Z</time>
      </trkpt>
      <trkpt lat="44.21235" lon="5.71094">
        <ele>1119.522</ele>
        <time>2012-05-04T10:25:50Z</time>
      </trkpt>
      <trkpt lat="44.21227" lon="5.71101">
        <ele>1121.563</ele>
        <time>2012-05-04T10:26:04Z</time>
      </trkpt>
      <trkpt lat="44.21222" lon="5.71102">
        <ele>1123.764</ele>
        <time>2012-05-04T10:26:16Z</time>
      </trkpt>
      <trkpt lat="44.21215" lon="5.71106">
        <ele>1125.283</ele>
        <time>2012-05-04T10:26:25Z</time>
      </trkpt>
      <trkpt lat="44.21214" lon="5.71108">
        <ele>1126.174</ele>
        <time>2012-05-04T10:26:31Z</time>
      </trkpt>
      <trkpt lat="44.21206" lon="5.71118">
        <ele>1127.604</ele>
        <time>2012-05-04T10:26:42Z</time>
      </trkpt>
      <trkpt lat="44.21198" lon="5.71125">
        <ele>1128.593</ele>
        <time>2012-05-04T10:26:53Z</time>
      </trkpt>
      <trkpt lat="44.21191" lon="5.71129">
        <ele>1129.257</ele>
        <time>2012-05-04T10:27:05Z</time>
      </trkpt>
      <trkpt lat="44.21185" lon="5.71133">
        <ele>1130.864</ele>
        <time>2012-05-04T10:27:15Z</time>
      </trkpt>
      <trkpt lat="44.2118" lon="5.71136">
        <ele>1131.322</ele>
        <time>2012-05-04T10:27:23Z</time>
      </trkpt>
      <trkpt lat="44.21173" lon="5.71143">
        <ele>1133.344</ele>
        <time>2012-05-04T10:27:34Z</time>
      </trkpt>
      <trkpt lat="44.21167" lon="5.71151">
        <ele>1134.129</ele>
        <time>2012-05-04T10:27:45Z</time>
      </trkpt>
      <trkpt lat="44.21165" lon="5.71153">
        <ele>1135.223</ele>
        <time>2012-05-04T10:27:51Z</time>
      </trkpt>
      <trkpt lat="44.21152" lon="5.71158">
        <ele>1136.778</ele>
        <time>2012-05-04T10:28:01Z</time>
      </trkpt>
      <trkpt lat="44.21146" lon="5.7117">
        <ele>1137.591</ele>
        <time>2012-05-04T10:28:11Z</time>
      </trkpt>
      <trkpt lat="44.21144" lon="5.71171">
        <ele>1138.827</ele>
        <time>2012-05-04T10:28:19Z</time>
      </trkpt>
      <trkpt lat="44.21139" lon="5.71183">
        <ele>1139.926</ele>
        <time>2012-05-04T10:28:28Z</time>
      </trkpt>
      <trkpt lat="44.21133" lon="5.71198">
        <ele>1142.396</ele>
        <time>2012-05-04T10:28:41Z</time>
      </trkpt>
      <trkpt lat="44.21124" lon="5.71209">
        <ele>1143.563</ele>
        <time>2012-05-04T10:28:52Z</time>
      </trkpt>
      <trkpt lat="44.21124" lon="5.71211">
        <ele>1143.931</ele>
        <time>2012-05-04T10:28:54Z</time>
      </trkpt>
      <trkpt lat="44.21118" lon="5.71223">
        <ele>1145.396</ele>
        <time>2012-05-04T10:29:07Z</time>
      </trkpt>
      <trkpt lat="44.21111" lon="5.71229">
        <ele>1147.012</ele>
        <time>2012-05-04T10:29:17Z</time>
      </trkpt>
      <trkpt lat="44.21105" lon="5.71238">
        <ele>1148.332</ele>
        <time>2012-05-04T10:29:28Z</time>
      </trkpt>
      <trkpt lat="44.21099" lon="5.71242">
        <ele>1150.042</ele>
        <time>2012-05-04T10:29:36Z</time>
      </trkpt>
      <trkpt lat="44.21093" lon="5.71249">
        <ele>1151.992</ele>
        <time>2012-05-04T10:29:47Z</time>
      </trkpt>
      <trkpt lat="44.21086" lon="5.71252">
        <ele>1153.348</ele>
        <time>2012-05-04T10:29:56Z</time>
      </trkpt>
      <trkpt lat="44.21081" lon="5.71244">
        <ele>1154.452</ele>
        <time>2012-05-04T10:30:06Z</time>
      </trkpt>
      <trkpt lat="44.21076" lon="5.71236">
        <ele>1157.154</ele>
        <time>2012-05-04T10:30:16Z</time>
      </trkpt>
      <trkpt lat="44.21075" lon="5.71225">
        <ele>1158.002</ele>
        <time>2012-05-04T10:30:24Z</time>
      </trkpt>
      <trkpt lat="44.21071" lon="5.71208">
        <ele>1160.44</ele>
        <time>2012-05-04T10:30:38Z</time>
      </trkpt>
      <trkpt lat="44.21071" lon="5.71204">
        <ele>1161.244</ele>
        <time>2012-05-04T10:30:41Z</time>
      </trkpt>
      <trkpt lat="44.21072" lon="5.71189">
        <ele>1163.66</ele>
        <time>2012-05-04T10:30:55Z</time>
      </trkpt>
      <trkpt lat="44.21072" lon="5.71178">
        <ele>1165.799</ele>
        <time>2012-05-04T10:31:07Z</time>
      </trkpt>
      <trkpt lat="44.21066" lon="5.71167">
        <ele>1167.48</ele>
        <time>2012-05-04T10:31:20Z</time>
      </trkpt>
      <trkpt lat="44.21062" lon="5.71157">
        <ele>1169.541</ele>
        <time>2012-05-04T10:31:33Z</time>
      </trkpt>
      <trkpt lat="44.21056" lon="5.71149">
        <ele>1171.132</ele>
        <time>2012-05-04T10:31:43Z</time>
      </trkpt>
      <trkpt lat="44.21054" lon="5.71148">
        <ele>1172.702</ele>
        <time>2012-05-04T10:31:57Z</time>
      </trkpt>
      <trkpt lat="44.21055" lon="5.71149">
        <ele>1172.153</ele>
        <time>2012-05-04T10:32:22Z</time>
      </trkpt>
      <trkpt lat="44.21054" lon="5.71149">
        <ele>1172.827</ele>
        <time>2012-05-04T10:32:43Z</time>
      </trkpt>
      <trkpt lat="44.21049" lon="5.7115">
        <ele>1173.448</ele>
        <time>2012-05-04T10:32:57Z</time>
      </trkpt>
      <trkpt lat="44.21044" lon="5.7116">
        <ele>1175.982</ele>
        <time>2012-05-04T10:33:10Z</time>
      </trkpt>
      <trkpt lat="44.2104" lon="5.71171">
        <ele>1178.976</ele>
        <time>2012-05-04T10:33:24Z</time>
      </trkpt>
      <trkpt lat="44.21034" lon="5.71185">
        <ele>1181.455</ele>
        <time>2012-05-04T10:33:37Z</time>
      </trkpt>
      <trkpt lat="44.21034" lon="5.71185">
        <ele>1181.459</ele>
        <time>2012-05-04T10:33:38Z</time>
      </trkpt>
      <trkpt lat="44.21032" lon="5.71196">
        <ele>1183.014</ele>
        <time>2012-05-04T10:33:48Z</time>
      </trkpt>
      <trkpt lat="44.21032" lon="5.712">
        <ele>1183.643</ele>
        <time>2012-05-04T10:34:02Z</time>
      </trkpt>
      <trkpt lat="44.2103" lon="5.71199">
        <ele>1183.207</ele>
        <time>2012-05-04T10:34:36Z</time>
      </trkpt>
      <trkpt lat="44.21032" lon="5.71199">
        <ele>1183.65</ele>
        <time>2012-05-04T10:35:05Z</time>
      </trkpt>
      <trkpt lat="44.2103" lon="5.71197">
        <ele>1184.201</ele>
        <time>2012-05-04T10:35:39Z</time>
      </trkpt>
      <trkpt lat="44.21033" lon="5.712">
        <ele>1184.462</ele>
        <time>2012-05-04T10:36:18Z</time>
      </trkpt>
      <trkpt lat="44.21033" lon="5.71201">
        <ele>1184.709</ele>
        <time>2012-05-04T10:36:41Z</time>
      </trkpt>
      <trkpt lat="44.21033" lon="5.71199">
        <ele>1185.167</ele>
        <time>2012-05-04T10:37:03Z</time>
      </trkpt>
      <trkpt lat="44.21033" lon="5.71205">
        <ele>1186.477</ele>
        <time>2012-05-04T10:38:17Z</time>
      </trkpt>
      <trkpt lat="44.21025" lon="5.71221">
        <ele>1188.928</ele>
        <time>2012-05-04T10:38:34Z</time>
      </trkpt>
      <trkpt lat="44.21023" lon="5.71231">
        <ele>1190.034</ele>
        <time>2012-05-04T10:38:43Z</time>
      </trkpt>
      <trkpt lat="44.2102" lon="5.71237">
        <ele>1191.379</ele>
        <time>2012-05-04T10:38:53Z</time>
      </trkpt>
      <trkpt lat="44.21018" lon="5.7124">
        <ele>1191.975</ele>
        <time>2012-05-04T10:38:58Z</time>
      </trkpt>
      <trkpt lat="44.21012" lon="5.71249">
        <ele>1193.067</ele>
        <time>2012-05-04T10:39:06Z</time>
      </trkpt>
      <trkpt lat="44.21006" lon="5.71263">
        <ele>1194.227</ele>
        <time>2012-05-04T10:39:18Z</time>
      </trkpt>
      <trkpt lat="44.21001" lon="5.71276">
        <ele>1195.199</ele>
        <time>2012-05-04T10:39:27Z</time>
      </trkpt>
      <trkpt lat="44.20997" lon="5.7129">
        <ele>1197.168</ele>
        <time>2012-05-04T10:39:38Z</time>
      </trkpt>
      <trkpt lat="44.20996" lon="5.71293">
        <ele>1197.38</ele>
        <time>2012-05-04T10:39:40Z</time>
      </trkpt>
      <trkpt lat="44.20991" lon="5.71305">
        <ele>1198.947</ele>
        <time>2012-05-04T10:39:51Z</time>
      </trkpt>
      <trkpt lat="44.20987" lon="5.71317">
        <ele>1200.76</ele>
        <time>2012-05-04T10:40:02Z</time>
      </trkpt>
      <trkpt lat="44.20986" lon="5.71322">
        <ele>1201.934</ele>
        <time>2012-05-04T10:40:08Z</time>
      </trkpt>
      <trkpt lat="44.20984" lon="5.71327">
        <ele>1202.05</ele>
        <time>2012-05-04T10:40:12Z</time>
      </trkpt>
      <trkpt lat="44.2098" lon="5.71337">
        <ele>1203.503</ele>
        <time>2012-05-04T10:40:19Z</time>
      </trkpt>
      <trkpt lat="44.20976" lon="5.71351">
        <ele>1205</ele>
        <time>2012-05-04T10:40:30Z</time>
      </trkpt>
      <trkpt lat="44.20974" lon="5.71364">
        <ele>1206.487</ele>
        <time>2012-05-04T10:40:41Z</time>
      </trkpt>
      <trkpt lat="44.20972" lon="5.71376">
        <ele>1208.466</ele>
        <time>2012-05-04T10:40:51Z</time>
      </trkpt>
      <trkpt lat="44.20967" lon="5.71387">
        <ele>1209.998</ele>
        <time>2012-05-04T10:41:00Z</time>
      </trkpt>
      <trkpt lat="44.20963" lon="5.71403">
        <ele>1211.925</ele>
        <time>2012-05-04T10:41:11Z</time>
      </trkpt>
      <trkpt lat="44.20963" lon="5.71415">
        <ele>1214.052</ele>
        <time>2012-05-04T10:41:21Z</time>
      </trkpt>
      <trkpt lat="44.20963" lon="5.71423">
        <ele>1215.359</ele>
        <time>2012-05-04T10:41:31Z</time>
      </trkpt>
      <trkpt lat="44.20963" lon="5.71443">
        <ele>1218.004</ele>
        <time>2012-05-04T10:41:46Z</time>
      </trkpt>
      <trkpt lat="44.20958" lon="5.71464">
        <ele>1220.466</ele>
        <time>2012-05-04T10:42:02Z</time>
      </trkpt>
      <trkpt lat="44.20957" lon="5.71474">
        <ele>1222.599</ele>
        <time>2012-05-04T10:42:11Z</time>
      </trkpt>
      <trkpt lat="44.20956" lon="5.71483">
        <ele>1223.424</ele>
        <time>2012-05-04T10:42:19Z</time>
      </trkpt>
      <trkpt lat="44.20947" lon="5.71492">
        <ele>1224.594</ele>
        <time>2012-05-04T10:42:23Z</time>
      </trkpt>
      <trkpt lat="44.20942" lon="5.715">
        <ele>1226.472</ele>
        <time>2012-05-04T10:42:33Z</time>
      </trkpt>
      <trkpt lat="44.20941" lon="5.71504">
        <ele>1227.191</ele>
        <time>2012-05-04T10:42:41Z</time>
      </trkpt>
      <trkpt lat="44.20938" lon="5.71507">
        <ele>1227.453</ele>
        <time>2012-05-04T10:42:50Z</time>
      </trkpt>
      <trkpt lat="44.20934" lon="5.71517">
        <ele>1228.835</ele>
        <time>2012-05-04T10:43:08Z</time>
      </trkpt>
      <trkpt lat="44.20932" lon="5.71523">
        <ele>1229.833</ele>
        <time>2012-05-04T10:43:13Z</time>
      </trkpt>
      <trkpt lat="44.20925" lon="5.71536">
        <ele>1231.456</ele>
        <time>2012-05-04T10:43:24Z</time>
      </trkpt>
      <trkpt lat="44.20916" lon="5.71547">
        <ele>1232.716</ele>
        <time>2012-05-04T10:43:37Z</time>
      </trkpt>
      <trkpt lat="44.20908" lon="5.71553">
        <ele>1233.934</ele>
        <time>2012-05-04T10:43:47Z</time>
      </trkpt>
      <trkpt lat="44.20899" lon="5.71569">
        <ele>1235.917</ele>
        <time>2012-05-04T10:44:00Z</time>
      </trkpt>
      <trkpt lat="44.20892" lon="5.71576">
        <ele>1236.766</ele>
        <time>2012-05-04T10:44:24Z</time>
      </trkpt>
      <trkpt lat="44.20893" lon="5.71586">
        <ele>1238.343</ele>
        <time>2012-05-04T10:44:48Z</time>
      </trkpt>
      <trkpt lat="44.20887" lon="5.71587">
        <ele>1240.401</ele>
        <time>2012-05-04T10:44:56Z</time>
      </trkpt>
      <trkpt lat="44.20884" lon="5.71582">
        <ele>1240.826</ele>
        <time>2012-05-04T10:45:09Z</time>
      </trkpt>
      <trkpt lat="44.20886" lon="5.71579">
        <ele>1241.244</ele>
        <time>2012-05-04T10:45:22Z</time>
      </trkpt>
      <trkpt lat="44.2089" lon="5.71572">
        <ele>1242.483</ele>
        <time>2012-05-04T10:45:33Z</time>
      </trkpt>
      <trkpt lat="44.20885" lon="5.71564">
        <ele>1243.334</ele>
        <time>2012-05-04T10:45:45Z</time>
      </trkpt>
      <trkpt lat="44.20883" lon="5.7156">
        <ele>1243.575</ele>
        <time>2012-05-04T10:45:55Z</time>
      </trkpt>
      <trkpt lat="44.20879" lon="5.71553">
        <ele>1245.102</ele>
        <time>2012-05-04T10:46:08Z</time>
      </trkpt>
      <trkpt lat="44.20875" lon="5.7154">
        <ele>1245.888</ele>
        <time>2012-05-04T10:46:36Z</time>
      </trkpt>
      <trkpt lat="44.20872" lon="5.71531">
        <ele>1247.199</ele>
        <time>2012-05-04T10:47:00Z</time>
      </trkpt>
      <trkpt lat="44.20871" lon="5.7153">
        <ele>1247.688</ele>
        <time>2012-05-04T10:47:02Z</time>
      </trkpt>
      <trkpt lat="44.20869" lon="5.71527">
        <ele>1248.44</ele>
        <time>2012-05-04T10:47:18Z</time>
      </trkpt>
      <trkpt lat="44.20869" lon="5.71527">
        <ele>1248.41</ele>
        <time>2012-05-04T10:48:25Z</time>
      </trkpt>
      <trkpt lat="44.2087" lon="5.71536">
        <ele>1247.439</ele>
        <time>2012-05-04T10:49:05Z</time>
      </trkpt>
      <trkpt lat="44.20872" lon="5.71547">
        <ele>1245.681</ele>
        <time>2012-05-04T10:49:20Z</time>
      </trkpt>
      <trkpt lat="44.20869" lon="5.71552">
        <ele>1245.217</ele>
        <time>2012-05-04T10:49:28Z</time>
      </trkpt>
      <trkpt lat="44.20869" lon="5.71553">
        <ele>1245.516</ele>
        <time>2012-05-04T10:49:29Z</time>
      </trkpt>
      <trkpt lat="44.20859" lon="5.71573">
        <ele>1247.453</ele>
        <time>2012-05-04T10:49:53Z</time>
      </trkpt>
      <trkpt lat="44.20872" lon="5.71599">
        <ele>1249.663</ele>
        <time>2012-05-04T10:50:13Z</time>
      </trkpt>
      <trkpt lat="44.20876" lon="5.71619">
        <ele>1250.541</ele>
        <time>2012-05-04T10:50:26Z</time>
      </trkpt>
      <trkpt lat="44.2088" lon="5.71634">
        <ele>1251.64</ele>
        <time>2012-05-04T10:50:39Z</time>
      </trkpt>
      <trkpt lat="44.20877" lon="5.71644">
        <ele>1252.672</ele>
        <time>2012-05-04T10:50:48Z</time>
      </trkpt>
      <trkpt lat="44.2088" lon="5.71648">
        <ele>1252.149</ele>
        <time>2012-05-04T10:50:51Z</time>
      </trkpt>
      <trkpt lat="44.20888" lon="5.71652">
        <ele>1253.211</ele>
        <time>2012-05-04T10:50:56Z</time>
      </trkpt>
      <trkpt lat="44.20892" lon="5.71657">
        <ele>1253.526</ele>
        <time>2012-05-04T10:51:03Z</time>
      </trkpt>
      <trkpt lat="44.20909" lon="5.71664">
        <ele>1255.261</ele>
        <time>2012-05-04T10:51:12Z</time>
      </trkpt>
      <trkpt lat="44.20914" lon="5.71669">
        <ele>1256.605</ele>
        <time>2012-05-04T10:51:19Z</time>
      </trkpt>
      <trkpt lat="44.20916" lon="5.71678">
        <ele>1257.718</ele>
        <time>2012-05-04T10:51:29Z</time>
      </trkpt>
      <trkpt lat="44.20917" lon="5.71685">
        <ele>1258.326</ele>
        <time>2012-05-04T10:51:35Z</time>
      </trkpt>
      <trkpt lat="44.20915" lon="5.71702">
        <ele>1259.101</ele>
        <time>2012-05-04T10:51:47Z</time>
      </trkpt>
      <trkpt lat="44.20918" lon="5.71714">
        <ele>1259.573</ele>
        <time>2012-05-04T10:51:55Z</time>
      </trkpt>
      <trkpt lat="44.20918" lon="5.71716">
        <ele>1259.572</ele>
        <time>2012-05-04T10:51:56Z</time>
      </trkpt>
      <trkpt lat="44.20919" lon="5.71726">
        <ele>1259.966</ele>
        <time>2012-05-04T10:52:02Z</time>
      </trkpt>
      <trkpt lat="44.2092" lon="5.71743">
        <ele>1260.716</ele>
        <time>2012-05-04T10:52:15Z</time>
      </trkpt>
      <trkpt lat="44.20924" lon="5.71762">
        <ele>1262.37</ele>
        <time>2012-05-04T10:52:30Z</time>
      </trkpt>
      <trkpt lat="44.20927" lon="5.71774">
        <ele>1263.151</ele>
        <time>2012-05-04T10:52:41Z</time>
      </trkpt>
      <trkpt lat="44.20927" lon="5.71782">
        <ele>1263.847</ele>
        <time>2012-05-04T10:52:48Z</time>
      </trkpt>
      <trkpt lat="44.20926" lon="5.71789">
        <ele>1264.362</ele>
        <time>2012-05-04T10:52:53Z</time>
      </trkpt>
      <trkpt lat="44.20927" lon="5.71791">
        <ele>1264.946</ele>
        <time>2012-05-04T10:52:55Z</time>
      </trkpt>
      <trkpt lat="44.20925" lon="5.71803">
        <ele>1265.511</ele>
        <time>2012-05-04T10:53:05Z</time>
      </trkpt>
      <trkpt lat="44.20925" lon="5.71806">
        <ele>1266.023</ele>
        <time>2012-05-04T10:53:07Z</time>
      </trkpt>
      <trkpt lat="44.20925" lon="5.71822">
        <ele>1267.184</ele>
        <time>2012-05-04T10:53:19Z</time>
      </trkpt>
      <trkpt lat="44.20926" lon="5.71823">
        <ele>1267.783</ele>
        <time>2012-05-04T10:53:20Z</time>
      </trkpt>
      <trkpt lat="44.20924" lon="5.71836">
        <ele>1269.32</ele>
        <time>2012-05-04T10:53:30Z</time>
      </trkpt>
      <trkpt lat="44.20922" lon="5.71847">
        <ele>1270.728</ele>
        <time>2012-05-04T10:53:40Z</time>
      </trkpt>
      <trkpt lat="44.20919" lon="5.71858">
        <ele>1271.634</ele>
        <time>2012-05-04T10:53:48Z</time>
      </trkpt>
      <trkpt lat="44.20917" lon="5.71865">
        <ele>1273.17</ele>
        <time>2012-05-04T10:53:58Z</time>
      </trkpt>
      <trkpt lat="44.20911" lon="5.71878">
        <ele>1274.935</ele>
        <time>2012-05-04T10:54:11Z</time>
      </trkpt>
      <trkpt lat="44.20904" lon="5.7189">
        <ele>1276.37</ele>
        <time>2012-05-04T10:54:23Z</time>
      </trkpt>
      <trkpt lat="44.20901" lon="5.71893">
        <ele>1277.312</ele>
        <time>2012-05-04T10:54:28Z</time>
      </trkpt>
      <trkpt lat="44.2089" lon="5.71901">
        <ele>1278.86</ele>
        <time>2012-05-04T10:54:41Z</time>
      </trkpt>
      <trkpt lat="44.20886" lon="5.71908">
        <ele>1279.299</ele>
        <time>2012-05-04T10:54:49Z</time>
      </trkpt>
      <trkpt lat="44.2088" lon="5.7192">
        <ele>1280.883</ele>
        <time>2012-05-04T10:54:59Z</time>
      </trkpt>
      <trkpt lat="44.20874" lon="5.71932">
        <ele>1282.973</ele>
        <time>2012-05-04T10:55:11Z</time>
      </trkpt>
      <trkpt lat="44.20873" lon="5.71933">
        <ele>1282.967</ele>
        <time>2012-05-04T10:55:12Z</time>
      </trkpt>
      <trkpt lat="44.20868" lon="5.71952">
        <ele>1285.132</ele>
        <time>2012-05-04T10:55:28Z</time>
      </trkpt>
      <trkpt lat="44.20866" lon="5.71961">
        <ele>1285.377</ele>
        <time>2012-05-04T10:55:36Z</time>
      </trkpt>
      <trkpt lat="44.20861" lon="5.71979">
        <ele>1285.965</ele>
        <time>2012-05-04T10:55:47Z</time>
      </trkpt>
      <trkpt lat="44.20854" lon="5.71987">
        <ele>1286.419</ele>
        <time>2012-05-04T10:55:58Z</time>
      </trkpt>
      <trkpt lat="44.20851" lon="5.71992">
        <ele>1286.905</ele>
        <time>2012-05-04T10:56:07Z</time>
      </trkpt>
      <trkpt lat="44.20841" lon="5.71998">
        <ele>1287.628</ele>
        <time>2012-05-04T10:56:16Z</time>
      </trkpt>
      <trkpt lat="44.20832" lon="5.72007">
        <ele>1288.31</ele>
        <time>2012-05-04T10:56:28Z</time>
      </trkpt>
      <trkpt lat="44.20826" lon="5.72017">
        <ele>1289.721</ele>
        <time>2012-05-04T10:56:40Z</time>
      </trkpt>
      <trkpt lat="44.20817" lon="5.72025">
        <ele>1291.342</ele>
        <time>2012-05-04T10:56:53Z</time>
      </trkpt>
      <trkpt lat="44.2081" lon="5.72043">
        <ele>1291.788</ele>
        <time>2012-05-04T10:57:08Z</time>
      </trkpt>
      <trkpt lat="44.20804" lon="5.72049">
        <ele>1293.581</ele>
        <time>2012-05-04T10:57:20Z</time>
      </trkpt>
      <trkpt lat="44.20792" lon="5.72065">
        <ele>1296.345</ele>
        <time>2012-05-04T10:57:36Z</time>
      </trkpt>
      <trkpt lat="44.20793" lon="5.72076">
        <ele>1297.768</ele>
        <time>2012-05-04T10:57:46Z</time>
      </trkpt>
      <trkpt lat="44.20791" lon="5.72081">
        <ele>1297.849</ele>
        <time>2012-05-04T10:57:49Z</time>
      </trkpt>
      <trkpt lat="44.20787" lon="5.72085">
        <ele>1298.641</ele>
        <time>2012-05-04T10:57:55Z</time>
      </trkpt>
      <trkpt lat="44.20782" lon="5.721">
        <ele>1299.741</ele>
        <time>2012-05-04T10:58:08Z</time>
      </trkpt>
      <trkpt lat="44.20776" lon="5.72112">
        <ele>1302.303</ele>
        <time>2012-05-04T10:58:20Z</time>
      </trkpt>
      <trkpt lat="44.20775" lon="5.72123">
        <ele>1303.971</ele>
        <time>2012-05-04T10:58:32Z</time>
      </trkpt>
      <trkpt lat="44.20772" lon="5.72136">
        <ele>1305.872</ele>
        <time>2012-05-04T10:58:44Z</time>
      </trkpt>
      <trkpt lat="44.20762" lon="5.72148">
        <ele>1307.85</ele>
        <time>2012-05-04T10:58:56Z</time>
      </trkpt>
      <trkpt lat="44.20752" lon="5.72162">
        <ele>1309.3</ele>
        <time>2012-05-04T10:59:11Z</time>
      </trkpt>
      <trkpt lat="44.2075" lon="5.72172">
        <ele>1311.429</ele>
        <time>2012-05-04T10:59:23Z</time>
      </trkpt>
      <trkpt lat="44.20748" lon="5.72185">
        <ele>1314.12</ele>
        <time>2012-05-04T10:59:37Z</time>
      </trkpt>
      <trkpt lat="44.20743" lon="5.72194">
        <ele>1315.493</ele>
        <time>2012-05-04T10:59:47Z</time>
      </trkpt>
      <trkpt lat="44.20746" lon="5.72213">
        <ele>1317.111</ele>
        <time>2012-05-04T11:00:01Z</time>
      </trkpt>
      <trkpt lat="44.20743" lon="5.72225">
        <ele>1318.864</ele>
        <time>2012-05-04T11:00:12Z</time>
      </trkpt>
      <trkpt lat="44.20747" lon="5.72236">
        <ele>1320.682</ele>
        <time>2012-05-04T11:00:25Z</time>
      </trkpt>
      <trkpt lat="44.20748" lon="5.72247">
        <ele>1322.35</ele>
        <time>2012-05-04T11:00:35Z</time>
      </trkpt>
      <trkpt lat="44.20749" lon="5.7225">
        <ele>1323.05</ele>
        <time>2012-05-04T11:00:42Z</time>
      </trkpt>
      <trkpt lat="44.20741" lon="5.72275">
        <ele>1324.813</ele>
        <time>2012-05-04T11:00:57Z</time>
      </trkpt>
      <trkpt lat="44.20733" lon="5.72286">
        <ele>1326.887</ele>
        <time>2012-05-04T11:01:13Z</time>
      </trkpt>
      <trkpt lat="44.20729" lon="5.72307">
        <ele>1327.165</ele>
        <time>2012-05-04T11:01:53Z</time>
      </trkpt>
      <trkpt lat="44.2072" lon="5.72321">
        <ele>1329.847</ele>
        <time>2012-05-04T11:02:14Z</time>
      </trkpt>
      <trkpt lat="44.20709" lon="5.7234">
        <ele>1332.192</ele>
        <time>2012-05-04T11:02:31Z</time>
      </trkpt>
      <trkpt lat="44.20711" lon="5.72358">
        <ele>1334.557</ele>
        <time>2012-05-04T11:02:46Z</time>
      </trkpt>
      <trkpt lat="44.20714" lon="5.72374">
        <ele>1336.941</ele>
        <time>2012-05-04T11:03:04Z</time>
      </trkpt>
      <trkpt lat="44.2073" lon="5.7239">
        <ele>1339.11</ele>
        <time>2012-05-04T11:03:25Z</time>
      </trkpt>
      <trkpt lat="44.20745" lon="5.72399">
        <ele>1342.212</ele>
        <time>2012-05-04T11:03:43Z</time>
      </trkpt>
      <trkpt lat="44.20754" lon="5.7241">
        <ele>1345.191</ele>
        <time>2012-05-04T11:03:59Z</time>
      </trkpt>
      <trkpt lat="44.20752" lon="5.72423">
        <ele>1346.912</ele>
        <time>2012-05-04T11:04:11Z</time>
      </trkpt>
      <trkpt lat="44.2075" lon="5.72433">
        <ele>1347.717</ele>
        <time>2012-05-04T11:04:21Z</time>
      </trkpt>
      <trkpt lat="44.20748" lon="5.72435">
        <ele>1348.404</ele>
        <time>2012-05-04T11:04:31Z</time>
      </trkpt>
      <trkpt lat="44.20748" lon="5.72432">
        <ele>1348.206</ele>
        <time>2012-05-04T11:05:13Z</time>
      </trkpt>
      <trkpt lat="44.20746" lon="5.72433">
        <ele>1348.459</ele>
        <time>2012-05-04T11:05:42Z</time>
      </trkpt>
      <trkpt lat="44.20746" lon="5.72433">
        <ele>1348.478</ele>
        <time>2012-05-04T11:05:58Z</time>
      </trkpt>
      <trkpt lat="44.20739" lon="5.72437">
        <ele>1349.436</ele>
        <time>2012-05-04T11:06:32Z</time>
      </trkpt>
      <trkpt lat="44.20732" lon="5.72433">
        <ele>1351.126</ele>
        <time>2012-05-04T11:06:46Z</time>
      </trkpt>
      <trkpt lat="44.20723" lon="5.72417">
        <ele>1351.108</ele>
        <time>2012-05-04T11:07:03Z</time>
      </trkpt>
      <trkpt lat="44.20725" lon="5.72415">
        <ele>1351.67</ele>
        <time>2012-05-04T11:07:23Z</time>
      </trkpt>
      <trkpt lat="44.20718" lon="5.72411">
        <ele>1351.295</ele>
        <time>2012-05-04T11:08:18Z</time>
      </trkpt>
      <trkpt lat="44.20708" lon="5.72403">
        <ele>1352.255</ele>
        <time>2012-05-04T11:08:32Z</time>
      </trkpt>
      <trkpt lat="44.20694" lon="5.72392">
        <ele>1354.048</ele>
        <time>2012-05-04T11:08:46Z</time>
      </trkpt>
      <trkpt lat="44.20683" lon="5.7239">
        <ele>1356.191</ele>
        <time>2012-05-04T11:09:01Z</time>
      </trkpt>
      <trkpt lat="44.20673" lon="5.72389">
        <ele>1357.682</ele>
        <time>2012-05-04T11:09:27Z</time>
      </trkpt>
      <trkpt lat="44.20661" lon="5.72392">
        <ele>1359.511</ele>
        <time>2012-05-04T11:09:57Z</time>
      </trkpt>
      <trkpt lat="44.20653" lon="5.72392">
        <ele>1361.319</ele>
        <time>2012-05-04T11:10:09Z</time>
      </trkpt>
      <trkpt lat="44.20642" lon="5.72384">
        <ele>1363.177</ele>
        <time>2012-05-04T11:10:22Z</time>
      </trkpt>
      <trkpt lat="44.20635" lon="5.72373">
        <ele>1364.742</ele>
        <time>2012-05-04T11:10:34Z</time>
      </trkpt>
      <trkpt lat="44.20626" lon="5.72371">
        <ele>1367.803</ele>
        <time>2012-05-04T11:10:58Z</time>
      </trkpt>
      <trkpt lat="44.20618" lon="5.72363">
        <ele>1369.752</ele>
        <time>2012-05-04T11:11:16Z</time>
      </trkpt>
      <trkpt lat="44.20609" lon="5.72358">
        <ele>1371.376</ele>
        <time>2012-05-04T11:11:31Z</time>
      </trkpt>
      <trkpt lat="44.20597" lon="5.72357">
        <ele>1372.933</ele>
        <time>2012-05-04T11:11:46Z</time>
      </trkpt>
      <trkpt lat="44.20588" lon="5.72346">
        <ele>1374.507</ele>
        <time>2012-05-04T11:11:54Z</time>
      </trkpt>
      <trkpt lat="44.20582" lon="5.72348">
        <ele>1375.661</ele>
        <time>2012-05-04T11:12:03Z</time>
      </trkpt>
      <trkpt lat="44.2058" lon="5.72348">
        <ele>1377.132</ele>
        <time>2012-05-04T11:12:12Z</time>
      </trkpt>
      <trkpt lat="44.20576" lon="5.72341">
        <ele>1378.997</ele>
        <time>2012-05-04T11:12:20Z</time>
      </trkpt>
      <trkpt lat="44.20571" lon="5.72336">
        <ele>1379.882</ele>
        <time>2012-05-04T11:12:28Z</time>
      </trkpt>
      <trkpt lat="44.20564" lon="5.72332">
        <ele>1382.242</ele>
        <time>2012-05-04T11:12:42Z</time>
      </trkpt>
      <trkpt lat="44.20556" lon="5.72325">
        <ele>1382.996</ele>
        <time>2012-05-04T11:12:52Z</time>
      </trkpt>
      <trkpt lat="44.20553" lon="5.72331">
        <ele>1384.994</ele>
        <time>2012-05-04T11:13:02Z</time>
      </trkpt>
      <trkpt lat="44.20544" lon="5.72331">
        <ele>1386.968</ele>
        <time>2012-05-04T11:13:14Z</time>
      </trkpt>
      <trkpt lat="44.2054" lon="5.72332">
        <ele>1387.189</ele>
        <time>2012-05-04T11:13:20Z</time>
      </trkpt>
      <trkpt lat="44.20535" lon="5.72333">
        <ele>1389.555</ele>
        <time>2012-05-04T11:13:28Z</time>
      </trkpt>
      <trkpt lat="44.20524" lon="5.72327">
        <ele>1391.481</ele>
        <time>2012-05-04T11:13:43Z</time>
      </trkpt>
      <trkpt lat="44.20517" lon="5.72316">
        <ele>1393.695</ele>
        <time>2012-05-04T11:13:56Z</time>
      </trkpt>
      <trkpt lat="44.20504" lon="5.72305">
        <ele>1397.242</ele>
        <time>2012-05-04T11:14:17Z</time>
      </trkpt>
      <trkpt lat="44.205" lon="5.72298">
        <ele>1398.97</ele>
        <time>2012-05-04T11:14:29Z</time>
      </trkpt>
      <trkpt lat="44.20491" lon="5.72296">
        <ele>1400.14</ele>
        <time>2012-05-04T11:14:38Z</time>
      </trkpt>
      <trkpt lat="44.20486" lon="5.72289">
        <ele>1402.231</ele>
        <time>2012-05-04T11:14:48Z</time>
      </trkpt>
      <trkpt lat="44.20485" lon="5.72275">
        <ele>1403.976</ele>
        <time>2012-05-04T11:15:00Z</time>
      </trkpt>
      <trkpt lat="44.20477" lon="5.72266">
        <ele>1405.628</ele>
        <time>2012-05-04T11:15:13Z</time>
      </trkpt>
      <trkpt lat="44.20462" lon="5.72258">
        <ele>1407.389</ele>
        <time>2012-05-04T11:15:26Z</time>
      </trkpt>
      <trkpt lat="44.20457" lon="5.72251">
        <ele>1409.177</ele>
        <time>2012-05-04T11:15:38Z</time>
      </trkpt>
      <trkpt lat="44.20451" lon="5.72243">
        <ele>1409.945</ele>
        <time>2012-05-04T11:15:47Z</time>
      </trkpt>
      <trkpt lat="44.20451" lon="5.72243">
        <ele>1410.354</ele>
        <time>2012-05-04T11:16:05Z</time>
      </trkpt>
      <trkpt lat="44.20453" lon="5.72252">
        <ele>1410.96</ele>
        <time>2012-05-04T11:16:20Z</time>
      </trkpt>
      <trkpt lat="44.20452" lon="5.72247">
        <ele>1411.535</ele>
        <time>2012-05-04T11:17:10Z</time>
      </trkpt>
      <trkpt lat="44.20448" lon="5.72236">
        <ele>1412.415</ele>
        <time>2012-05-04T11:17:19Z</time>
      </trkpt>
      <trkpt lat="44.20436" lon="5.72221">
        <ele>1414.141</ele>
        <time>2012-05-04T11:17:34Z</time>
      </trkpt>
      <trkpt lat="44.20421" lon="5.72211">
        <ele>1417.227</ele>
        <time>2012-05-04T11:17:50Z</time>
      </trkpt>
      <trkpt lat="44.20417" lon="5.72204">
        <ele>1419.128</ele>
        <time>2012-05-04T11:18:02Z</time>
      </trkpt>
      <trkpt lat="44.2041" lon="5.72191">
        <ele>1421.56</ele>
        <time>2012-05-04T11:18:16Z</time>
      </trkpt>
      <trkpt lat="44.2041" lon="5.72184">
        <ele>1423.985</ele>
        <time>2012-05-04T11:18:28Z</time>
      </trkpt>
      <trkpt lat="44.20408" lon="5.72173">
        <ele>1425.774</ele>
        <time>2012-05-04T11:18:39Z</time>
      </trkpt>
      <trkpt lat="44.20403" lon="5.72167">
        <ele>1427.267</ele>
        <time>2012-05-04T11:18:51Z</time>
      </trkpt>
      <trkpt lat="44.20399" lon="5.72156">
        <ele>1430.425</ele>
        <time>2012-05-04T11:19:05Z</time>
      </trkpt>
      <trkpt lat="44.20398" lon="5.72154">
        <ele>1430.429</ele>
        <time>2012-05-04T11:19:06Z</time>
      </trkpt>
      <trkpt lat="44.20393" lon="5.72148">
        <ele>1432.092</ele>
        <time>2012-05-04T11:19:19Z</time>
      </trkpt>
      <trkpt lat="44.20393" lon="5.72137">
        <ele>1433.809</ele>
        <time>2012-05-04T11:19:29Z</time>
      </trkpt>
      <trkpt lat="44.20385" lon="5.72131">
        <ele>1435.274</ele>
        <time>2012-05-04T11:19:38Z</time>
      </trkpt>
      <trkpt lat="44.20375" lon="5.72138">
        <ele>1438.03</ele>
        <time>2012-05-04T11:19:56Z</time>
      </trkpt>
      <trkpt lat="44.20365" lon="5.72138">
        <ele>1439.858</ele>
        <time>2012-05-04T11:20:07Z</time>
      </trkpt>
      <trkpt lat="44.20364" lon="5.72129">
        <ele>1442.25</ele>
        <time>2012-05-04T11:20:19Z</time>
      </trkpt>
      <trkpt lat="44.20361" lon="5.7212">
        <ele>1443.761</ele>
        <time>2012-05-04T11:20:30Z</time>
      </trkpt>
      <trkpt lat="44.20353" lon="5.72113">
        <ele>1445.777</ele>
        <time>2012-05-04T11:20:43Z</time>
      </trkpt>
      <trkpt lat="44.2035" lon="5.72111">
        <ele>1447.087</ele>
        <time>2012-05-04T11:20:53Z</time>
      </trkpt>
      <trkpt lat="44.20344" lon="5.72104">
        <ele>1449.384</ele>
        <time>2012-05-04T11:21:05Z</time>
      </trkpt>
      <trkpt lat="44.20338" lon="5.72098">
        <ele>1451.051</ele>
        <time>2012-05-04T11:21:17Z</time>
      </trkpt>
      <trkpt lat="44.20331" lon="5.72092">
        <ele>1452.926</ele>
        <time>2012-05-04T11:21:29Z</time>
      </trkpt>
      <trkpt lat="44.20332" lon="5.72083">
        <ele>1454.609</ele>
        <time>2012-05-04T11:21:40Z</time>
      </trkpt>
      <trkpt lat="44.20334" lon="5.72072">
        <ele>1456.988</ele>
        <time>2012-05-04T11:21:55Z</time>
      </trkpt>
      <trkpt lat="44.20336" lon="5.72063">
        <ele>1459.94</ele>
        <time>2012-05-04T11:22:08Z</time>
      </trkpt>
      <trkpt lat="44.20335" lon="5.72055">
        <ele>1462.117</ele>
        <time>2012-05-04T11:22:19Z</time>
      </trkpt>
      <trkpt lat="44.20333" lon="5.72044">
        <ele>1463.012</ele>
        <time>2012-05-04T11:22:29Z</time>
      </trkpt>
      <trkpt lat="44.20323" lon="5.7203">
        <ele>1464.248</ele>
        <time>2012-05-04T11:22:40Z</time>
      </trkpt>
      <trkpt lat="44.20321" lon="5.72023">
        <ele>1465.957</ele>
        <time>2012-05-04T11:22:51Z</time>
      </trkpt>
      <trkpt lat="44.20316" lon="5.72008">
        <ele>1468.492</ele>
        <time>2012-05-04T11:23:08Z</time>
      </trkpt>
      <trkpt lat="44.20309" lon="5.71994">
        <ele>1469.358</ele>
        <time>2012-05-04T11:23:19Z</time>
      </trkpt>
      <trkpt lat="44.20312" lon="5.71983">
        <ele>1472.775</ele>
        <time>2012-05-04T11:23:31Z</time>
      </trkpt>
      <trkpt lat="44.2031" lon="5.71975">
        <ele>1472.956</ele>
        <time>2012-05-04T11:23:40Z</time>
      </trkpt>
      <trkpt lat="44.20305" lon="5.71962">
        <ele>1474.842</ele>
        <time>2012-05-04T11:23:54Z</time>
      </trkpt>
      <trkpt lat="44.20295" lon="5.71945">
        <ele>1476.621</ele>
        <time>2012-05-04T11:24:07Z</time>
      </trkpt>
      <trkpt lat="44.20297" lon="5.71929">
        <ele>1478.972</ele>
        <time>2012-05-04T11:24:23Z</time>
      </trkpt>
      <trkpt lat="44.20296" lon="5.71922">
        <ele>1479.676</ele>
        <time>2012-05-04T11:24:30Z</time>
      </trkpt>
      <trkpt lat="44.20293" lon="5.7192">
        <ele>1481.548</ele>
        <time>2012-05-04T11:24:38Z</time>
      </trkpt>
      <trkpt lat="44.20289" lon="5.71918">
        <ele>1482.596</ele>
        <time>2012-05-04T11:24:45Z</time>
      </trkpt>
      <trkpt lat="44.20272" lon="5.71925">
        <ele>1484.186</ele>
        <time>2012-05-04T11:24:57Z</time>
      </trkpt>
      <trkpt lat="44.20269" lon="5.71932">
        <ele>1486.232</ele>
        <time>2012-05-04T11:25:08Z</time>
      </trkpt>
      <trkpt lat="44.20261" lon="5.71927">
        <ele>1489.989</ele>
        <time>2012-05-04T11:25:25Z</time>
      </trkpt>
      <trkpt lat="44.2026" lon="5.71926">
        <ele>1492.707</ele>
        <time>2012-05-04T11:25:44Z</time>
      </trkpt>
      <trkpt lat="44.2026" lon="5.71927">
        <ele>1495.072</ele>
        <time>2012-05-04T11:25:56Z</time>
      </trkpt>
      <trkpt lat="44.20259" lon="5.71935">
        <ele>1497.141</ele>
        <time>2012-05-04T11:26:11Z</time>
      </trkpt>
      <trkpt lat="44.20255" lon="5.7194">
        <ele>1499.143</ele>
        <time>2012-05-04T11:26:30Z</time>
      </trkpt>
      <trkpt lat="44.20263" lon="5.71953">
        <ele>1498.387</ele>
        <time>2012-05-04T11:26:45Z</time>
      </trkpt>
      <trkpt lat="44.20264" lon="5.71956">
        <ele>1498.443</ele>
        <time>2012-05-04T11:26:59Z</time>
      </trkpt>
      <trkpt lat="44.20258" lon="5.71961">
        <ele>1499.663</ele>
        <time>2012-05-04T11:27:43Z</time>
      </trkpt>
      <trkpt lat="44.20257" lon="5.71965">
        <ele>1500.274</ele>
        <time>2012-05-04T11:27:47Z</time>
      </trkpt>
      <trkpt lat="44.20255" lon="5.71976">
        <ele>1502.127</ele>
        <time>2012-05-04T11:28:01Z</time>
      </trkpt>
      <trkpt lat="44.2025" lon="5.71987">
        <ele>1505.067</ele>
        <time>2012-05-04T11:28:12Z</time>
      </trkpt>
      <trkpt lat="44.20249" lon="5.71991">
        <ele>1505.706</ele>
        <time>2012-05-04T11:28:22Z</time>
      </trkpt>
      <trkpt lat="44.20246" lon="5.71993">
        <ele>1505.928</ele>
        <time>2012-05-04T11:28:31Z</time>
      </trkpt>
      <trkpt lat="44.20245" lon="5.71988">
        <ele>1506.195</ele>
        <time>2012-05-04T11:28:40Z</time>
      </trkpt>
      <trkpt lat="44.20244" lon="5.71989">
        <ele>1505.941</ele>
        <time>2012-05-04T11:32:28Z</time>
      </trkpt>
      <trkpt lat="44.20245" lon="5.71989">
        <ele>1506.591</ele>
        <time>2012-05-04T11:32:48Z</time>
      </trkpt>
      <trkpt lat="44.20241" lon="5.71979">
        <ele>1508.822</ele>
        <time>2012-05-04T11:32:59Z</time>
      </trkpt>
      <trkpt lat="44.20239" lon="5.71975">
        <ele>1509.123</ele>
        <time>2012-05-04T11:33:02Z</time>
      </trkpt>
      <trkpt lat="44.20236" lon="5.71968">
        <ele>1510.111</ele>
        <time>2012-05-04T11:33:11Z</time>
      </trkpt>
      <trkpt lat="44.20234" lon="5.71955">
        <ele>1512.195</ele>
        <time>2012-05-04T11:33:24Z</time>
      </trkpt>
      <trkpt lat="44.20233" lon="5.7195">
        <ele>1512.247</ele>
        <time>2012-05-04T11:33:29Z</time>
      </trkpt>
      <trkpt lat="44.20232" lon="5.71946">
        <ele>1513.175</ele>
        <time>2012-05-04T11:33:33Z</time>
      </trkpt>
      <trkpt lat="44.2023" lon="5.71938">
        <ele>1514.546</ele>
        <time>2012-05-04T11:33:42Z</time>
      </trkpt>
      <trkpt lat="44.20229" lon="5.71935">
        <ele>1515.235</ele>
        <time>2012-05-04T11:33:45Z</time>
      </trkpt>
      <trkpt lat="44.20225" lon="5.71921">
        <ele>1516.367</ele>
        <time>2012-05-04T11:33:56Z</time>
      </trkpt>
      <trkpt lat="44.20221" lon="5.7191">
        <ele>1517.611</ele>
        <time>2012-05-04T11:34:07Z</time>
      </trkpt>
      <trkpt lat="44.20219" lon="5.71906">
        <ele>1518.295</ele>
        <time>2012-05-04T11:34:14Z</time>
      </trkpt>
      <trkpt lat="44.20219" lon="5.71897">
        <ele>1519.994</ele>
        <time>2012-05-04T11:34:25Z</time>
      </trkpt>
      <trkpt lat="44.20217" lon="5.71887">
        <ele>1521.592</ele>
        <time>2012-05-04T11:34:37Z</time>
      </trkpt>
      <trkpt lat="44.20216" lon="5.71883">
        <ele>1522.119</ele>
        <time>2012-05-04T11:34:42Z</time>
      </trkpt>
      <trkpt lat="44.20216" lon="5.71876">
        <ele>1522.788</ele>
        <time>2012-05-04T11:34:49Z</time>
      </trkpt>
      <trkpt lat="44.20216" lon="5.71866">
        <ele>1524.297</ele>
        <time>2012-05-04T11:34:59Z</time>
      </trkpt>
      <trkpt lat="44.20216" lon="5.71855">
        <ele>1525.496</ele>
        <time>2012-05-04T11:35:09Z</time>
      </trkpt>
      <trkpt lat="44.20214" lon="5.71847">
        <ele>1526.554</ele>
        <time>2012-05-04T11:35:18Z</time>
      </trkpt>
      <trkpt lat="44.20213" lon="5.71838">
        <ele>1528.291</ele>
        <time>2012-05-04T11:35:29Z</time>
      </trkpt>
      <trkpt lat="44.20212" lon="5.71829">
        <ele>1529.621</ele>
        <time>2012-05-04T11:35:39Z</time>
      </trkpt>
      <trkpt lat="44.20212" lon="5.71817">
        <ele>1531.302</ele>
        <time>2012-05-04T11:35:50Z</time>
      </trkpt>
      <trkpt lat="44.2021" lon="5.71809">
        <ele>1532.241</ele>
        <time>2012-05-04T11:35:58Z</time>
      </trkpt>
      <trkpt lat="44.20209" lon="5.71807">
        <ele>1532.83</ele>
        <time>2012-05-04T11:36:01Z</time>
      </trkpt>
      <trkpt lat="44.20207" lon="5.71798">
        <ele>1534.434</ele>
        <time>2012-05-04T11:36:11Z</time>
      </trkpt>
      <trkpt lat="44.20206" lon="5.71787">
        <ele>1536.282</ele>
        <time>2012-05-04T11:36:23Z</time>
      </trkpt>
      <trkpt lat="44.20205" lon="5.71778">
        <ele>1537.908</ele>
        <time>2012-05-04T11:36:32Z</time>
      </trkpt>
      <trkpt lat="44.20205" lon="5.71777">
        <ele>1538.008</ele>
        <time>2012-05-04T11:36:33Z</time>
      </trkpt>
      <trkpt lat="44.20203" lon="5.71771">
        <ele>1540.266</ele>
        <time>2012-05-04T11:36:43Z</time>
      </trkpt>
      <trkpt lat="44.20203" lon="5.71769">
        <ele>1540.348</ele>
        <time>2012-05-04T11:36:46Z</time>
      </trkpt>
      <trkpt lat="44.20201" lon="5.71762">
        <ele>1542.475</ele>
        <time>2012-05-04T11:36:55Z</time>
      </trkpt>
      <trkpt lat="44.20199" lon="5.71753">
        <ele>1543.622</ele>
        <time>2012-05-04T11:37:06Z</time>
      </trkpt>
      <trkpt lat="44.20197" lon="5.71751">
        <ele>1544.201</ele>
        <time>2012-05-04T11:37:09Z</time>
      </trkpt>
      <trkpt lat="44.20196" lon="5.71744">
        <ele>1545.66</ele>
        <time>2012-05-04T11:37:16Z</time>
      </trkpt>
      <trkpt lat="44.20195" lon="5.71738">
        <ele>1546.269</ele>
        <time>2012-05-04T11:37:24Z</time>
      </trkpt>
      <trkpt lat="44.20194" lon="5.7173">
        <ele>1547.231</ele>
        <time>2012-05-04T11:37:31Z</time>
      </trkpt>
      <trkpt lat="44.20195" lon="5.71722">
        <ele>1548.735</ele>
        <time>2012-05-04T11:37:41Z</time>
      </trkpt>
      <trkpt lat="44.20194" lon="5.71714">
        <ele>1550.234</ele>
        <time>2012-05-04T11:37:51Z</time>
      </trkpt>
      <trkpt lat="44.20193" lon="5.71706">
        <ele>1552.017</ele>
        <time>2012-05-04T11:38:01Z</time>
      </trkpt>
      <trkpt lat="44.20189" lon="5.71698">
        <ele>1553.774</ele>
        <time>2012-05-04T11:38:11Z</time>
      </trkpt>
      <trkpt lat="44.20189" lon="5.7169">
        <ele>1554.971</ele>
        <time>2012-05-04T11:38:21Z</time>
      </trkpt>
      <trkpt lat="44.20186" lon="5.71681">
        <ele>1557.624</ele>
        <time>2012-05-04T11:38:32Z</time>
      </trkpt>
      <trkpt lat="44.20185" lon="5.71677">
        <ele>1559.256</ele>
        <time>2012-05-04T11:38:40Z</time>
      </trkpt>
      <trkpt lat="44.20184" lon="5.71671">
        <ele>1560.223</ele>
        <time>2012-05-04T11:38:46Z</time>
      </trkpt>
      <trkpt lat="44.20183" lon="5.71665">
        <ele>1560.964</ele>
        <time>2012-05-04T11:38:53Z</time>
      </trkpt>
      <trkpt lat="44.20182" lon="5.71663">
        <ele>1561.063</ele>
        <time>2012-05-04T11:38:56Z</time>
      </trkpt>
      <trkpt lat="44.2018" lon="5.71654">
        <ele>1563.181</ele>
        <time>2012-05-04T11:39:07Z</time>
      </trkpt>
      <trkpt lat="44.2018" lon="5.71646">
        <ele>1565.048</ele>
        <time>2012-05-04T11:39:17Z</time>
      </trkpt>
      <trkpt lat="44.20175" lon="5.71639">
        <ele>1566.724</ele>
        <time>2012-05-04T11:39:29Z</time>
      </trkpt>
      <trkpt lat="44.20172" lon="5.71634">
        <ele>1567.944</ele>
        <time>2012-05-04T11:39:37Z</time>
      </trkpt>
      <trkpt lat="44.20168" lon="5.71629">
        <ele>1569.58</ele>
        <time>2012-05-04T11:39:45Z</time>
      </trkpt>
      <trkpt lat="44.20166" lon="5.71622">
        <ele>1571.243</ele>
        <time>2012-05-04T11:39:54Z</time>
      </trkpt>
      <trkpt lat="44.20162" lon="5.71614">
        <ele>1573.357</ele>
        <time>2012-05-04T11:40:06Z</time>
      </trkpt>
      <trkpt lat="44.20161" lon="5.71606">
        <ele>1574.545</ele>
        <time>2012-05-04T11:40:15Z</time>
      </trkpt>
      <trkpt lat="44.2016" lon="5.716">
        <ele>1575.549</ele>
        <time>2012-05-04T11:40:22Z</time>
      </trkpt>
      <trkpt lat="44.20157" lon="5.71591">
        <ele>1577.853</ele>
        <time>2012-05-04T11:40:31Z</time>
      </trkpt>
      <trkpt lat="44.20155" lon="5.71583">
        <ele>1578.63</ele>
        <time>2012-05-04T11:40:41Z</time>
      </trkpt>
      <trkpt lat="44.20154" lon="5.71582">
        <ele>1578.669</ele>
        <time>2012-05-04T11:40:43Z</time>
      </trkpt>
      <trkpt lat="44.20151" lon="5.71577">
        <ele>1580.229</ele>
        <time>2012-05-04T11:40:50Z</time>
      </trkpt>
      <trkpt lat="44.20148" lon="5.71568">
        <ele>1581.773</ele>
        <time>2012-05-04T11:41:02Z</time>
      </trkpt>
      <trkpt lat="44.20146" lon="5.71557">
        <ele>1583.292</ele>
        <time>2012-05-04T11:41:13Z</time>
      </trkpt>
      <trkpt lat="44.20145" lon="5.71546">
        <ele>1584.942</ele>
        <time>2012-05-04T11:41:25Z</time>
      </trkpt>
      <trkpt lat="44.20144" lon="5.7154">
        <ele>1586.968</ele>
        <time>2012-05-04T11:41:35Z</time>
      </trkpt>
      <trkpt lat="44.20138" lon="5.71532">
        <ele>1588.212</ele>
        <time>2012-05-04T11:41:45Z</time>
      </trkpt>
      <trkpt lat="44.20138" lon="5.71529">
        <ele>1590.158</ele>
        <time>2012-05-04T11:41:48Z</time>
      </trkpt>
      <trkpt lat="44.20134" lon="5.71523">
        <ele>1590.523</ele>
        <time>2012-05-04T11:41:59Z</time>
      </trkpt>
      <trkpt lat="44.20127" lon="5.71512">
        <ele>1592.532</ele>
        <time>2012-05-04T11:42:10Z</time>
      </trkpt>
      <trkpt lat="44.20124" lon="5.71505">
        <ele>1594.328</ele>
        <time>2012-05-04T11:42:21Z</time>
      </trkpt>
    </trkseg>
  </trk>
  <trk>
    <name><![CDATA[ACTIVE LOG142715]]></name>
    <trkseg>
      <trkpt lat="44.20127" lon="5.71516">
        <ele>1590.602</ele>
        <time>2012-05-04T12:27:15Z</time>
      </trkpt>
      <trkpt lat="44.20123" lon="5.71516">
        <ele>1592.306</ele>
        <time>2012-05-04T12:27:21Z</time>
      </trkpt>
      <trkpt lat="44.20119" lon="5.71512">
        <ele>1594.793</ele>
        <time>2012-05-04T12:27:28Z</time>
      </trkpt>
      <trkpt lat="44.20119" lon="5.71512">
        <ele>1593.743</ele>
        <time>2012-05-04T12:27:29Z</time>
      </trkpt>
      <trkpt lat="44.20116" lon="5.71509">
        <ele>1596.316</ele>
        <time>2012-05-04T12:27:32Z</time>
      </trkpt>
      <trkpt lat="44.20115" lon="5.71507">
        <ele>1594.003</ele>
        <time>2012-05-04T12:27:34Z</time>
      </trkpt>
      <trkpt lat="44.20113" lon="5.71506">
        <ele>1595.901</ele>
        <time>2012-05-04T12:27:36Z</time>
      </trkpt>
      <trkpt lat="44.20111" lon="5.71505">
        <ele>1596.948</ele>
        <time>2012-05-04T12:27:38Z</time>
      </trkpt>
      <trkpt lat="44.20109" lon="5.71503">
        <ele>1594.564</ele>
        <time>2012-05-04T12:27:43Z</time>
      </trkpt>
      <trkpt lat="44.20104" lon="5.71499">
        <ele>1593.618</ele>
        <time>2012-05-04T12:27:49Z</time>
      </trkpt>
      <trkpt lat="44.20099" lon="5.71493">
        <ele>1593.591</ele>
        <time>2012-05-04T12:27:55Z</time>
      </trkpt>
      <trkpt lat="44.20096" lon="5.71489">
        <ele>1591.802</ele>
        <time>2012-05-04T12:27:59Z</time>
      </trkpt>
      <trkpt lat="44.20093" lon="5.71483">
        <ele>1594.077</ele>
        <time>2012-05-04T12:28:04Z</time>
      </trkpt>
      <trkpt lat="44.20092" lon="5.71478">
        <ele>1595.859</ele>
        <time>2012-05-04T12:28:08Z</time>
      </trkpt>
      <trkpt lat="44.2009" lon="5.71476">
        <ele>1594.033</ele>
        <time>2012-05-04T12:28:10Z</time>
      </trkpt>
      <trkpt lat="44.20087" lon="5.71473">
        <ele>1591.558</ele>
        <time>2012-05-04T12:28:14Z</time>
      </trkpt>
      <trkpt lat="44.20086" lon="5.71473">
        <ele>1593.715</ele>
        <time>2012-05-04T12:28:17Z</time>
      </trkpt>
      <trkpt lat="44.20083" lon="5.71475">
        <ele>1595.347</ele>
        <time>2012-05-04T12:28:20Z</time>
      </trkpt>
      <trkpt lat="44.20083" lon="5.71479">
        <ele>1595.75</ele>
        <time>2012-05-04T12:28:23Z</time>
      </trkpt>
      <trkpt lat="44.20082" lon="5.71481">
        <ele>1594.379</ele>
        <time>2012-05-04T12:28:25Z</time>
      </trkpt>
      <trkpt lat="44.20081" lon="5.71492">
        <ele>1592.109</ele>
        <time>2012-05-04T12:28:36Z</time>
      </trkpt>
      <trkpt lat="44.20081" lon="5.71493">
        <ele>1590.003</ele>
        <time>2012-05-04T12:28:39Z</time>
      </trkpt>
      <trkpt lat="44.20081" lon="5.71496">
        <ele>1587.2</ele>
        <time>2012-05-04T12:28:42Z</time>
      </trkpt>
      <trkpt lat="44.20081" lon="5.71501">
        <ele>1587.194</ele>
        <time>2012-05-04T12:28:46Z</time>
      </trkpt>
      <trkpt lat="44.20081" lon="5.71513">
        <ele>1584.329</ele>
        <time>2012-05-04T12:28:58Z</time>
      </trkpt>
      <trkpt lat="44.20081" lon="5.71515">
        <ele>1584.588</ele>
        <time>2012-05-04T12:29:00Z</time>
      </trkpt>
      <trkpt lat="44.20081" lon="5.71518">
        <ele>1582.558</ele>
        <time>2012-05-04T12:29:03Z</time>
      </trkpt>
      <trkpt lat="44.20079" lon="5.71519">
        <ele>1581.399</ele>
        <time>2012-05-04T12:29:13Z</time>
      </trkpt>
      <trkpt lat="44.20078" lon="5.71519">
        <ele>1579.564</ele>
        <time>2012-05-04T12:29:24Z</time>
      </trkpt>
      <trkpt lat="44.20078" lon="5.7152">
        <ele>1575.953</ele>
        <time>2012-05-04T12:29:25Z</time>
      </trkpt>
      <trkpt lat="44.20078" lon="5.7152">
        <ele>1575.954</ele>
        <time>2012-05-04T12:29:26Z</time>
      </trkpt>
      <trkpt lat="44.20078" lon="5.7152">
        <ele>1578.089</ele>
        <time>2012-05-04T12:29:28Z</time>
      </trkpt>
      <trkpt lat="44.20078" lon="5.71521">
        <ele>1579.545</ele>
        <time>2012-05-04T12:29:30Z</time>
      </trkpt>
      <trkpt lat="44.20079" lon="5.71522">
        <ele>1579.643</ele>
        <time>2012-05-04T12:29:36Z</time>
      </trkpt>
      <trkpt lat="44.20077" lon="5.71527">
        <ele>1576.354</ele>
        <time>2012-05-04T12:29:52Z</time>
      </trkpt>
      <trkpt lat="44.20076" lon="5.71526">
        <ele>1575.49</ele>
        <time>2012-05-04T12:29:56Z</time>
      </trkpt>
      <trkpt lat="44.20071" lon="5.71523">
        <ele>1573.995</ele>
        <time>2012-05-04T12:30:08Z</time>
      </trkpt>
      <trkpt lat="44.20069" lon="5.71524">
        <ele>1572.104</ele>
        <time>2012-05-04T12:30:17Z</time>
      </trkpt>
      <trkpt lat="44.20065" lon="5.71521">
        <ele>1570.633</ele>
        <time>2012-05-04T12:31:27Z</time>
      </trkpt>
      <trkpt lat="44.20063" lon="5.71519">
        <ele>1569.407</ele>
        <time>2012-05-04T12:31:30Z</time>
      </trkpt>
      <trkpt lat="44.20056" lon="5.71505">
        <ele>1567.833</ele>
        <time>2012-05-04T12:31:44Z</time>
      </trkpt>
      <trkpt lat="44.20046" lon="5.71496">
        <ele>1564.115</ele>
        <time>2012-05-04T12:31:59Z</time>
      </trkpt>
      <trkpt lat="44.20045" lon="5.71496">
        <ele>1564.117</ele>
        <time>2012-05-04T12:32:00Z</time>
      </trkpt>
      <trkpt lat="44.20037" lon="5.71494">
        <ele>1562.39</ele>
        <time>2012-05-04T12:32:10Z</time>
      </trkpt>
      <trkpt lat="44.20024" lon="5.71489">
        <ele>1560.705</ele>
        <time>2012-05-04T12:32:25Z</time>
      </trkpt>
      <trkpt lat="44.20021" lon="5.71484">
        <ele>1561.898</ele>
        <time>2012-05-04T12:32:35Z</time>
      </trkpt>
      <trkpt lat="44.2001" lon="5.71472">
        <ele>1562.34</ele>
        <time>2012-05-04T12:32:49Z</time>
      </trkpt>
      <trkpt lat="44.19996" lon="5.71457">
        <ele>1564.095</ele>
        <time>2012-05-04T12:33:06Z</time>
      </trkpt>
      <trkpt lat="44.19986" lon="5.71448">
        <ele>1562.916</ele>
        <time>2012-05-04T12:33:19Z</time>
      </trkpt>
      <trkpt lat="44.19979" lon="5.71437">
        <ele>1561.752</ele>
        <time>2012-05-04T12:33:37Z</time>
      </trkpt>
      <trkpt lat="44.19978" lon="5.71436">
        <ele>1561.635</ele>
        <time>2012-05-04T12:33:38Z</time>
      </trkpt>
      <trkpt lat="44.19975" lon="5.71433">
        <ele>1564.639</ele>
        <time>2012-05-04T12:33:42Z</time>
      </trkpt>
      <trkpt lat="44.19975" lon="5.71433">
        <ele>1564.639</ele>
        <time>2012-05-04T12:33:43Z</time>
      </trkpt>
      <trkpt lat="44.19973" lon="5.71431">
        <ele>1563.244</ele>
        <time>2012-05-04T12:33:45Z</time>
      </trkpt>
      <trkpt lat="44.19972" lon="5.71428">
        <ele>1560.907</ele>
        <time>2012-05-04T12:33:47Z</time>
      </trkpt>
      <trkpt lat="44.19967" lon="5.71421">
        <ele>1559.999</ele>
        <time>2012-05-04T12:33:53Z</time>
      </trkpt>
      <trkpt lat="44.19959" lon="5.71415">
        <ele>1555.668</ele>
        <time>2012-05-04T12:34:03Z</time>
      </trkpt>
      <trkpt lat="44.19958" lon="5.71414">
        <ele>1555.668</ele>
        <time>2012-05-04T12:34:04Z</time>
      </trkpt>
      <trkpt lat="44.19956" lon="5.71412">
        <ele>1557.128</ele>
        <time>2012-05-04T12:34:08Z</time>
      </trkpt>
      <trkpt lat="44.19951" lon="5.7141">
        <ele>1554.702</ele>
        <time>2012-05-04T12:34:14Z</time>
      </trkpt>
      <trkpt lat="44.19948" lon="5.71413">
        <ele>1553.579</ele>
        <time>2012-05-04T12:34:23Z</time>
      </trkpt>
      <trkpt lat="44.19948" lon="5.71412">
        <ele>1555.513</ele>
        <time>2012-05-04T12:34:25Z</time>
      </trkpt>
      <trkpt lat="44.19947" lon="5.71411">
        <ele>1552.81</ele>
        <time>2012-05-04T12:34:27Z</time>
      </trkpt>
      <trkpt lat="44.19946" lon="5.71411">
        <ele>1550.062</ele>
        <time>2012-05-04T12:34:29Z</time>
      </trkpt>
      <trkpt lat="44.19945" lon="5.71409">
        <ele>1552.266</ele>
        <time>2012-05-04T12:34:31Z</time>
      </trkpt>
      <trkpt lat="44.19944" lon="5.71407">
        <ele>1549.466</ele>
        <time>2012-05-04T12:34:33Z</time>
      </trkpt>
      <trkpt lat="44.1994" lon="5.71406">
        <ele>1547.876</ele>
        <time>2012-05-04T12:34:38Z</time>
      </trkpt>
      <trkpt lat="44.19938" lon="5.71403">
        <ele>1547.481</ele>
        <time>2012-05-04T12:34:42Z</time>
      </trkpt>
      <trkpt lat="44.19932" lon="5.71399">
        <ele>1544.878</ele>
        <time>2012-05-04T12:34:54Z</time>
      </trkpt>
      <trkpt lat="44.19929" lon="5.71398">
        <ele>1546.13</ele>
        <time>2012-05-04T12:34:58Z</time>
      </trkpt>
      <trkpt lat="44.19926" lon="5.71396">
        <ele>1545.664</ele>
        <time>2012-05-04T12:35:12Z</time>
      </trkpt>
      <trkpt lat="44.19924" lon="5.71392">
        <ele>1542.913</ele>
        <time>2012-05-04T12:35:26Z</time>
      </trkpt>
      <trkpt lat="44.19921" lon="5.71388">
        <ele>1541.493</ele>
        <time>2012-05-04T12:35:40Z</time>
      </trkpt>
      <trkpt lat="44.19918" lon="5.71388">
        <ele>1540.879</ele>
        <time>2012-05-04T12:35:51Z</time>
      </trkpt>
      <trkpt lat="44.19917" lon="5.71387">
        <ele>1539.565</ele>
        <time>2012-05-04T12:35:58Z</time>
      </trkpt>
      <trkpt lat="44.19916" lon="5.71383">
        <ele>1538.298</ele>
        <time>2012-05-04T12:36:12Z</time>
      </trkpt>
      <trkpt lat="44.19913" lon="5.71379">
        <ele>1537.308</ele>
        <time>2012-05-04T12:36:23Z</time>
      </trkpt>
      <trkpt lat="44.19913" lon="5.71372">
        <ele>1536.986</ele>
        <time>2012-05-04T12:36:34Z</time>
      </trkpt>
      <trkpt lat="44.19908" lon="5.71369">
        <ele>1535.723</ele>
        <time>2012-05-04T12:36:44Z</time>
      </trkpt>
      <trkpt lat="44.19902" lon="5.71374">
        <ele>1534.307</ele>
        <time>2012-05-04T12:37:01Z</time>
      </trkpt>
      <trkpt lat="44.199" lon="5.71372">
        <ele>1533.632</ele>
        <time>2012-05-04T12:37:32Z</time>
      </trkpt>
      <trkpt lat="44.19896" lon="5.71371">
        <ele>1528.054</ele>
        <time>2012-05-04T12:37:40Z</time>
      </trkpt>
      <trkpt lat="44.19896" lon="5.71371">
        <ele>1528.053</ele>
        <time>2012-05-04T12:37:41Z</time>
      </trkpt>
      <trkpt lat="44.19896" lon="5.71371">
        <ele>1531.8</ele>
        <time>2012-05-04T12:37:42Z</time>
      </trkpt>
      <trkpt lat="44.19896" lon="5.71371">
        <ele>1531.801</ele>
        <time>2012-05-04T12:37:43Z</time>
      </trkpt>
      <trkpt lat="44.19894" lon="5.71364">
        <ele>1530.372</ele>
        <time>2012-05-04T12:37:57Z</time>
      </trkpt>
      <trkpt lat="44.19892" lon="5.71357">
        <ele>1528.518</ele>
        <time>2012-05-04T12:38:08Z</time>
      </trkpt>
      <trkpt lat="44.19885" lon="5.7135">
        <ele>1525.811</ele>
        <time>2012-05-04T12:38:22Z</time>
      </trkpt>
      <trkpt lat="44.19881" lon="5.71347">
        <ele>1524.546</ele>
        <time>2012-05-04T12:38:27Z</time>
      </trkpt>
      <trkpt lat="44.19879" lon="5.71347">
        <ele>1521.962</ele>
        <time>2012-05-04T12:38:31Z</time>
      </trkpt>
      <trkpt lat="44.19876" lon="5.71343">
        <ele>1524.512</ele>
        <time>2012-05-04T12:38:36Z</time>
      </trkpt>
      <trkpt lat="44.19873" lon="5.71335">
        <ele>1524.865</ele>
        <time>2012-05-04T12:38:42Z</time>
      </trkpt>
      <trkpt lat="44.19872" lon="5.71335">
        <ele>1520.504</ele>
        <time>2012-05-04T12:38:43Z</time>
      </trkpt>
      <trkpt lat="44.19872" lon="5.71335">
        <ele>1520.5</ele>
        <time>2012-05-04T12:38:44Z</time>
      </trkpt>
      <trkpt lat="44.19871" lon="5.71334">
        <ele>1523.769</ele>
        <time>2012-05-04T12:38:45Z</time>
      </trkpt>
      <trkpt lat="44.1987" lon="5.71334">
        <ele>1523.767</ele>
        <time>2012-05-04T12:38:46Z</time>
      </trkpt>
      <trkpt lat="44.1987" lon="5.71334">
        <ele>1520.014</ele>
        <time>2012-05-04T12:38:47Z</time>
      </trkpt>
      <trkpt lat="44.19869" lon="5.71333">
        <ele>1520.009</ele>
        <time>2012-05-04T12:38:48Z</time>
      </trkpt>
      <trkpt lat="44.19867" lon="5.71332">
        <ele>1521.736</ele>
        <time>2012-05-04T12:38:50Z</time>
      </trkpt>
      <trkpt lat="44.19866" lon="5.71331">
        <ele>1523.24</ele>
        <time>2012-05-04T12:38:52Z</time>
      </trkpt>
      <trkpt lat="44.19865" lon="5.71328">
        <ele>1519.629</ele>
        <time>2012-05-04T12:38:54Z</time>
      </trkpt>
      <trkpt lat="44.19864" lon="5.71327">
        <ele>1519.625</ele>
        <time>2012-05-04T12:38:55Z</time>
      </trkpt>
      <trkpt lat="44.19861" lon="5.71325">
        <ele>1520.901</ele>
        <time>2012-05-04T12:38:59Z</time>
      </trkpt>
      <trkpt lat="44.19861" lon="5.71324">
        <ele>1519.511</ele>
        <time>2012-05-04T12:39:03Z</time>
      </trkpt>
      <trkpt lat="44.1986" lon="5.71323">
        <ele>1514.549</ele>
        <time>2012-05-04T12:39:06Z</time>
      </trkpt>
      <trkpt lat="44.19859" lon="5.71323">
        <ele>1514.545</ele>
        <time>2012-05-04T12:39:07Z</time>
      </trkpt>
      <trkpt lat="44.19858" lon="5.71322">
        <ele>1515.87</ele>
        <time>2012-05-04T12:39:09Z</time>
      </trkpt>
      <trkpt lat="44.19857" lon="5.7132">
        <ele>1518.157</ele>
        <time>2012-05-04T12:39:11Z</time>
      </trkpt>
      <trkpt lat="44.19857" lon="5.71318">
        <ele>1516.573</ele>
        <time>2012-05-04T12:39:13Z</time>
      </trkpt>
      <trkpt lat="44.19855" lon="5.71314">
        <ele>1514.239</ele>
        <time>2012-05-04T12:39:18Z</time>
      </trkpt>
      <trkpt lat="44.19854" lon="5.71313">
        <ele>1517.471</ele>
        <time>2012-05-04T12:39:19Z</time>
      </trkpt>
      <trkpt lat="44.19854" lon="5.71313">
        <ele>1517.468</ele>
        <time>2012-05-04T12:39:20Z</time>
      </trkpt>
      <trkpt lat="44.19853" lon="5.71311">
        <ele>1514.963</ele>
        <time>2012-05-04T12:39:22Z</time>
      </trkpt>
      <trkpt lat="44.19851" lon="5.71309">
        <ele>1513.638</ele>
        <time>2012-05-04T12:39:24Z</time>
      </trkpt>
      <trkpt lat="44.1985" lon="5.71308">
        <ele>1511.874</ele>
        <time>2012-05-04T12:39:26Z</time>
      </trkpt>
      <trkpt lat="44.19849" lon="5.71305">
        <ele>1510.412</ele>
        <time>2012-05-04T12:39:36Z</time>
      </trkpt>
      <trkpt lat="44.19844" lon="5.71301">
        <ele>1508.517</ele>
        <time>2012-05-04T12:39:43Z</time>
      </trkpt>
      <trkpt lat="44.19843" lon="5.71301">
        <ele>1507.089</ele>
        <time>2012-05-04T12:39:45Z</time>
      </trkpt>
      <trkpt lat="44.19841" lon="5.71299">
        <ele>1509.348</ele>
        <time>2012-05-04T12:39:49Z</time>
      </trkpt>
      <trkpt lat="44.1984" lon="5.71298">
        <ele>1507.505</ele>
        <time>2012-05-04T12:39:51Z</time>
      </trkpt>
      <trkpt lat="44.19833" lon="5.71288">
        <ele>1503.829</ele>
        <time>2012-05-04T12:40:07Z</time>
      </trkpt>
      <trkpt lat="44.19833" lon="5.71288">
        <ele>1503.824</ele>
        <time>2012-05-04T12:40:08Z</time>
      </trkpt>
      <trkpt lat="44.1983" lon="5.71281">
        <ele>1498.84</ele>
        <time>2012-05-04T12:40:20Z</time>
      </trkpt>
      <trkpt lat="44.19829" lon="5.71281">
        <ele>1498.835</ele>
        <time>2012-05-04T12:40:21Z</time>
      </trkpt>
      <trkpt lat="44.19826" lon="5.71281">
        <ele>1494.831</ele>
        <time>2012-05-04T12:40:30Z</time>
      </trkpt>
      <trkpt lat="44.19825" lon="5.71282">
        <ele>1494.826</ele>
        <time>2012-05-04T12:40:31Z</time>
      </trkpt>
      <trkpt lat="44.19824" lon="5.71282">
        <ele>1498.108</ele>
        <time>2012-05-04T12:40:32Z</time>
      </trkpt>
      <trkpt lat="44.19824" lon="5.71281">
        <ele>1498.105</ele>
        <time>2012-05-04T12:40:33Z</time>
      </trkpt>
      <trkpt lat="44.19826" lon="5.71276">
        <ele>1495.781</ele>
        <time>2012-05-04T12:40:43Z</time>
      </trkpt>
      <trkpt lat="44.19824" lon="5.71275">
        <ele>1494.399</ele>
        <time>2012-05-04T12:40:46Z</time>
      </trkpt>
      <trkpt lat="44.19822" lon="5.71271">
        <ele>1493.361</ele>
        <time>2012-05-04T12:40:57Z</time>
      </trkpt>
      <trkpt lat="44.19821" lon="5.7127">
        <ele>1490.906</ele>
        <time>2012-05-04T12:41:01Z</time>
      </trkpt>
      <trkpt lat="44.19821" lon="5.71269">
        <ele>1489.276</ele>
        <time>2012-05-04T12:41:09Z</time>
      </trkpt>
      <trkpt lat="44.19822" lon="5.71269">
        <ele>1490.474</ele>
        <time>2012-05-04T12:41:14Z</time>
      </trkpt>
      <trkpt lat="44.19815" lon="5.71264">
        <ele>1486.844</ele>
        <time>2012-05-04T12:41:23Z</time>
      </trkpt>
      <trkpt lat="44.19815" lon="5.71265">
        <ele>1486.842</ele>
        <time>2012-05-04T12:41:24Z</time>
      </trkpt>
      <trkpt lat="44.19814" lon="5.71265">
        <ele>1486.235</ele>
        <time>2012-05-04T12:41:25Z</time>
      </trkpt>
      <trkpt lat="44.19811" lon="5.71269">
        <ele>1485.273</ele>
        <time>2012-05-04T12:41:32Z</time>
      </trkpt>
      <trkpt lat="44.19809" lon="5.71269">
        <ele>1483.708</ele>
        <time>2012-05-04T12:41:39Z</time>
      </trkpt>
      <trkpt lat="44.19804" lon="5.7127">
        <ele>1481.691</ele>
        <time>2012-05-04T12:41:49Z</time>
      </trkpt>
      <trkpt lat="44.19802" lon="5.7127">
        <ele>1480.254</ele>
        <time>2012-05-04T12:41:51Z</time>
      </trkpt>
      <trkpt lat="44.19796" lon="5.71268">
        <ele>1478.195</ele>
        <time>2012-05-04T12:42:02Z</time>
      </trkpt>
      <trkpt lat="44.19793" lon="5.71265">
        <ele>1477.029</ele>
        <time>2012-05-04T12:42:06Z</time>
      </trkpt>
      <trkpt lat="44.19785" lon="5.71263">
        <ele>1472.814</ele>
        <time>2012-05-04T12:42:14Z</time>
      </trkpt>
      <trkpt lat="44.19784" lon="5.71262">
        <ele>1472.815</ele>
        <time>2012-05-04T12:42:15Z</time>
      </trkpt>
      <trkpt lat="44.19772" lon="5.71258">
        <ele>1471.243</ele>
        <time>2012-05-04T12:42:27Z</time>
      </trkpt>
      <trkpt lat="44.19766" lon="5.71259">
        <ele>1468.619</ele>
        <time>2012-05-04T12:42:34Z</time>
      </trkpt>
      <trkpt lat="44.19759" lon="5.71258">
        <ele>1467.93</ele>
        <time>2012-05-04T12:42:41Z</time>
      </trkpt>
      <trkpt lat="44.19757" lon="5.71258">
        <ele>1467.855</ele>
        <time>2012-05-04T12:42:44Z</time>
      </trkpt>
      <trkpt lat="44.19743" lon="5.7125">
        <ele>1465.354</ele>
        <time>2012-05-04T12:42:58Z</time>
      </trkpt>
      <trkpt lat="44.19738" lon="5.71247">
        <ele>1464.5</ele>
        <time>2012-05-04T12:43:03Z</time>
      </trkpt>
      <trkpt lat="44.19734" lon="5.71239">
        <ele>1462.349</ele>
        <time>2012-05-04T12:43:11Z</time>
      </trkpt>
      <trkpt lat="44.19729" lon="5.71238">
        <ele>1460.857</ele>
        <time>2012-05-04T12:43:18Z</time>
      </trkpt>
      <trkpt lat="44.19726" lon="5.71238">
        <ele>1459.451</ele>
        <time>2012-05-04T12:43:21Z</time>
      </trkpt>
      <trkpt lat="44.19719" lon="5.71234">
        <ele>1458.512</ele>
        <time>2012-05-04T12:43:29Z</time>
      </trkpt>
      <trkpt lat="44.19714" lon="5.71233">
        <ele>1456.779</ele>
        <time>2012-05-04T12:43:33Z</time>
      </trkpt>
      <trkpt lat="44.19709" lon="5.71229">
        <ele>1456.562</ele>
        <time>2012-05-04T12:43:39Z</time>
      </trkpt>
      <trkpt lat="44.19703" lon="5.71228">
        <ele>1455.695</ele>
        <time>2012-05-04T12:43:45Z</time>
      </trkpt>
      <trkpt lat="44.19688" lon="5.71217">
        <ele>1453.901</ele>
        <time>2012-05-04T12:44:00Z</time>
      </trkpt>
      <trkpt lat="44.19677" lon="5.712">
        <ele>1452.52</ele>
        <time>2012-05-04T12:44:17Z</time>
      </trkpt>
      <trkpt lat="44.19675" lon="5.7119">
        <ele>1451.056</ele>
        <time>2012-05-04T12:44:27Z</time>
      </trkpt>
      <trkpt lat="44.19682" lon="5.71174">
        <ele>1448.546</ele>
        <time>2012-05-04T12:44:42Z</time>
      </trkpt>
      <trkpt lat="44.19685" lon="5.71168">
        <ele>1446.224</ele>
        <time>2012-05-04T12:44:54Z</time>
      </trkpt>
      <trkpt lat="44.19694" lon="5.71164">
        <ele>1445.384</ele>
        <time>2012-05-04T12:45:10Z</time>
      </trkpt>
      <trkpt lat="44.19697" lon="5.71159">
        <ele>1443.562</ele>
        <time>2012-05-04T12:45:27Z</time>
      </trkpt>
      <trkpt lat="44.19696" lon="5.71157">
        <ele>1442.229</ele>
        <time>2012-05-04T12:45:31Z</time>
      </trkpt>
      <trkpt lat="44.19693" lon="5.71148">
        <ele>1439.264</ele>
        <time>2012-05-04T12:45:46Z</time>
      </trkpt>
      <trkpt lat="44.19691" lon="5.71143">
        <ele>1437.723</ele>
        <time>2012-05-04T12:45:58Z</time>
      </trkpt>
      <trkpt lat="44.1969" lon="5.71144">
        <ele>1437.18</ele>
        <time>2012-05-04T12:46:13Z</time>
      </trkpt>
      <trkpt lat="44.19689" lon="5.71147">
        <ele>1436.288</ele>
        <time>2012-05-04T12:46:38Z</time>
      </trkpt>
      <trkpt lat="44.19685" lon="5.71151">
        <ele>1435.391</ele>
        <time>2012-05-04T12:47:02Z</time>
      </trkpt>
      <trkpt lat="44.19687" lon="5.7115">
        <ele>1432.242</ele>
        <time>2012-05-04T12:58:18Z</time>
      </trkpt>
      <trkpt lat="44.19688" lon="5.7115">
        <ele>1432.835</ele>
        <time>2012-05-04T13:03:39Z</time>
      </trkpt>
      <trkpt lat="44.19687" lon="5.71148">
        <ele>1432.363</ele>
        <time>2012-05-04T13:04:05Z</time>
      </trkpt>
      <trkpt lat="44.19689" lon="5.71138">
        <ele>1429.557</ele>
        <time>2012-05-04T13:04:23Z</time>
      </trkpt>
      <trkpt lat="44.19685" lon="5.71126">
        <ele>1426.73</ele>
        <time>2012-05-04T13:07:06Z</time>
      </trkpt>
      <trkpt lat="44.1968" lon="5.7112">
        <ele>1425.244</ele>
        <time>2012-05-04T13:07:16Z</time>
      </trkpt>
      <trkpt lat="44.19672" lon="5.71106">
        <ele>1421.347</ele>
        <time>2012-05-04T13:07:31Z</time>
      </trkpt>
      <trkpt lat="44.1967" lon="5.71102">
        <ele>1421.009</ele>
        <time>2012-05-04T13:07:35Z</time>
      </trkpt>
      <trkpt lat="44.19664" lon="5.71094">
        <ele>1419.392</ele>
        <time>2012-05-04T13:07:42Z</time>
      </trkpt>
      <trkpt lat="44.19658" lon="5.71086">
        <ele>1417.885</ele>
        <time>2012-05-04T13:07:50Z</time>
      </trkpt>
      <trkpt lat="44.19651" lon="5.7108">
        <ele>1416.111</ele>
        <time>2012-05-04T13:07:57Z</time>
      </trkpt>
      <trkpt lat="44.19646" lon="5.71069">
        <ele>1414.602</ele>
        <time>2012-05-04T13:08:04Z</time>
      </trkpt>
      <trkpt lat="44.19643" lon="5.71065">
        <ele>1414.727</ele>
        <time>2012-05-04T13:08:08Z</time>
      </trkpt>
      <trkpt lat="44.19637" lon="5.71057">
        <ele>1413.34</ele>
        <time>2012-05-04T13:08:16Z</time>
      </trkpt>
      <trkpt lat="44.19635" lon="5.71056">
        <ele>1412.074</ele>
        <time>2012-05-04T13:08:18Z</time>
      </trkpt>
      <trkpt lat="44.19634" lon="5.71055">
        <ele>1412.112</ele>
        <time>2012-05-04T13:08:19Z</time>
      </trkpt>
      <trkpt lat="44.1963" lon="5.71047">
        <ele>1410.743</ele>
        <time>2012-05-04T13:08:26Z</time>
      </trkpt>
      <trkpt lat="44.19624" lon="5.7104">
        <ele>1409.386</ele>
        <time>2012-05-04T13:08:35Z</time>
      </trkpt>
      <trkpt lat="44.19618" lon="5.7103">
        <ele>1407.175</ele>
        <time>2012-05-04T13:08:44Z</time>
      </trkpt>
      <trkpt lat="44.19616" lon="5.71028">
        <ele>1406.427</ele>
        <time>2012-05-04T13:08:47Z</time>
      </trkpt>
      <trkpt lat="44.19613" lon="5.71021">
        <ele>1405.203</ele>
        <time>2012-05-04T13:08:52Z</time>
      </trkpt>
      <trkpt lat="44.19612" lon="5.71012">
        <ele>1403.224</ele>
        <time>2012-05-04T13:09:05Z</time>
      </trkpt>
      <trkpt lat="44.19622" lon="5.71008">
        <ele>1399.916</ele>
        <time>2012-05-04T13:09:18Z</time>
      </trkpt>
      <trkpt lat="44.19634" lon="5.71008">
        <ele>1397.925</ele>
        <time>2012-05-04T13:09:30Z</time>
      </trkpt>
      <trkpt lat="44.19637" lon="5.71007">
        <ele>1397.148</ele>
        <time>2012-05-04T13:09:42Z</time>
      </trkpt>
      <trkpt lat="44.19649" lon="5.71006">
        <ele>1395.103</ele>
        <time>2012-05-04T13:09:55Z</time>
      </trkpt>
      <trkpt lat="44.19668" lon="5.71007">
        <ele>1392.028</ele>
        <time>2012-05-04T13:10:12Z</time>
      </trkpt>
      <trkpt lat="44.19679" lon="5.71005">
        <ele>1388.828</ele>
        <time>2012-05-04T13:10:24Z</time>
      </trkpt>
      <trkpt lat="44.19693" lon="5.71007">
        <ele>1386.182</ele>
        <time>2012-05-04T13:10:37Z</time>
      </trkpt>
      <trkpt lat="44.19694" lon="5.70994">
        <ele>1383.836</ele>
        <time>2012-05-04T13:10:50Z</time>
      </trkpt>
      <trkpt lat="44.19688" lon="5.70982">
        <ele>1380.199</ele>
        <time>2012-05-04T13:11:02Z</time>
      </trkpt>
      <trkpt lat="44.19681" lon="5.70967">
        <ele>1377.991</ele>
        <time>2012-05-04T13:11:16Z</time>
      </trkpt>
      <trkpt lat="44.19678" lon="5.70957">
        <ele>1375.505</ele>
        <time>2012-05-04T13:11:29Z</time>
      </trkpt>
      <trkpt lat="44.19677" lon="5.70946">
        <ele>1372.253</ele>
        <time>2012-05-04T13:11:44Z</time>
      </trkpt>
      <trkpt lat="44.19676" lon="5.70941">
        <ele>1369.979</ele>
        <time>2012-05-04T13:11:54Z</time>
      </trkpt>
      <trkpt lat="44.19675" lon="5.70937">
        <ele>1368.854</ele>
        <time>2012-05-04T13:11:59Z</time>
      </trkpt>
      <trkpt lat="44.1967" lon="5.70923">
        <ele>1365.544</ele>
        <time>2012-05-04T13:12:13Z</time>
      </trkpt>
      <trkpt lat="44.19663" lon="5.70905">
        <ele>1362.115</ele>
        <time>2012-05-04T13:12:30Z</time>
      </trkpt>
      <trkpt lat="44.19654" lon="5.70895">
        <ele>1361</ele>
        <time>2012-05-04T13:12:43Z</time>
      </trkpt>
      <trkpt lat="44.19652" lon="5.70887">
        <ele>1359.757</ele>
        <time>2012-05-04T13:12:50Z</time>
      </trkpt>
      <trkpt lat="44.19644" lon="5.70874">
        <ele>1356.041</ele>
        <time>2012-05-04T13:13:04Z</time>
      </trkpt>
      <trkpt lat="44.19637" lon="5.70861">
        <ele>1351.943</ele>
        <time>2012-05-04T13:13:16Z</time>
      </trkpt>
      <trkpt lat="44.19634" lon="5.70857">
        <ele>1351.649</ele>
        <time>2012-05-04T13:13:20Z</time>
      </trkpt>
      <trkpt lat="44.19633" lon="5.70848">
        <ele>1351.194</ele>
        <time>2012-05-04T13:13:30Z</time>
      </trkpt>
      <trkpt lat="44.19636" lon="5.70839">
        <ele>1349.345</ele>
        <time>2012-05-04T13:13:43Z</time>
      </trkpt>
      <trkpt lat="44.19637" lon="5.70835">
        <ele>1348.603</ele>
        <time>2012-05-04T13:13:47Z</time>
      </trkpt>
      <trkpt lat="44.1964" lon="5.70822">
        <ele>1344.997</ele>
        <time>2012-05-04T13:13:59Z</time>
      </trkpt>
      <trkpt lat="44.19642" lon="5.70805">
        <ele>1341.641</ele>
        <time>2012-05-04T13:14:13Z</time>
      </trkpt>
      <trkpt lat="44.19642" lon="5.70804">
        <ele>1341.46</ele>
        <time>2012-05-04T13:14:14Z</time>
      </trkpt>
      <trkpt lat="44.19645" lon="5.70791">
        <ele>1338.815</ele>
        <time>2012-05-04T13:14:26Z</time>
      </trkpt>
      <trkpt lat="44.19645" lon="5.70789">
        <ele>1338.814</ele>
        <time>2012-05-04T13:14:27Z</time>
      </trkpt>
      <trkpt lat="44.19644" lon="5.7077">
        <ele>1335.311</ele>
        <time>2012-05-04T13:14:41Z</time>
      </trkpt>
      <trkpt lat="44.19643" lon="5.70769">
        <ele>1335.31</ele>
        <time>2012-05-04T13:14:42Z</time>
      </trkpt>
      <trkpt lat="44.19644" lon="5.70758">
        <ele>1334.352</ele>
        <time>2012-05-04T13:14:50Z</time>
      </trkpt>
      <trkpt lat="44.19649" lon="5.70753">
        <ele>1332.373</ele>
        <time>2012-05-04T13:15:07Z</time>
      </trkpt>
      <trkpt lat="44.19651" lon="5.70746">
        <ele>1329.945</ele>
        <time>2012-05-04T13:15:58Z</time>
      </trkpt>
      <trkpt lat="44.19653" lon="5.70737">
        <ele>1328.402</ele>
        <time>2012-05-04T13:16:06Z</time>
      </trkpt>
      <trkpt lat="44.19649" lon="5.70713">
        <ele>1325.591</ele>
        <time>2012-05-04T13:16:25Z</time>
      </trkpt>
      <trkpt lat="44.19651" lon="5.70692">
        <ele>1322.839</ele>
        <time>2012-05-04T13:16:40Z</time>
      </trkpt>
      <trkpt lat="44.1965" lon="5.70687">
        <ele>1321.947</ele>
        <time>2012-05-04T13:16:44Z</time>
      </trkpt>
      <trkpt lat="44.1965" lon="5.70663">
        <ele>1320.137</ele>
        <time>2012-05-04T13:16:58Z</time>
      </trkpt>
      <trkpt lat="44.19651" lon="5.70636">
        <ele>1318.449</ele>
        <time>2012-05-04T13:17:15Z</time>
      </trkpt>
      <trkpt lat="44.19652" lon="5.70614">
        <ele>1317.976</ele>
        <time>2012-05-04T13:17:28Z</time>
      </trkpt>
      <trkpt lat="44.19652" lon="5.70609">
        <ele>1318.175</ele>
        <time>2012-05-04T13:17:31Z</time>
      </trkpt>
      <trkpt lat="44.19654" lon="5.70606">
        <ele>1317.503</ele>
        <time>2012-05-04T13:17:33Z</time>
      </trkpt>
      <trkpt lat="44.19656" lon="5.7059">
        <ele>1318.529</ele>
        <time>2012-05-04T13:17:44Z</time>
      </trkpt>
      <trkpt lat="44.19657" lon="5.70589">
        <ele>1318.288</ele>
        <time>2012-05-04T13:17:55Z</time>
      </trkpt>
      <trkpt lat="44.19658" lon="5.7059">
        <ele>1318.374</ele>
        <time>2012-05-04T13:18:08Z</time>
      </trkpt>
      <trkpt lat="44.19663" lon="5.70591">
        <ele>1318.429</ele>
        <time>2012-05-04T13:18:19Z</time>
      </trkpt>
      <trkpt lat="44.19668" lon="5.70594">
        <ele>1318.448</ele>
        <time>2012-05-04T13:18:26Z</time>
      </trkpt>
      <trkpt lat="44.1968" lon="5.70595">
        <ele>1316.83</ele>
        <time>2012-05-04T13:18:39Z</time>
      </trkpt>
      <trkpt lat="44.19687" lon="5.70594">
        <ele>1315.858</ele>
        <time>2012-05-04T13:18:50Z</time>
      </trkpt>
      <trkpt lat="44.19688" lon="5.70594">
        <ele>1315.77</ele>
        <time>2012-05-04T13:18:53Z</time>
      </trkpt>
      <trkpt lat="44.1969" lon="5.70593">
        <ele>1315.595</ele>
        <time>2012-05-04T13:18:55Z</time>
      </trkpt>
      <trkpt lat="44.19705" lon="5.70592">
        <ele>1314.311</ele>
        <time>2012-05-04T13:19:10Z</time>
      </trkpt>
      <trkpt lat="44.1972" lon="5.70585">
        <ele>1313.293</ele>
        <time>2012-05-04T13:19:25Z</time>
      </trkpt>
      <trkpt lat="44.19734" lon="5.70581">
        <ele>1312.092</ele>
        <time>2012-05-04T13:19:39Z</time>
      </trkpt>
      <trkpt lat="44.19752" lon="5.70575">
        <ele>1308.962</ele>
        <time>2012-05-04T13:19:55Z</time>
      </trkpt>
      <trkpt lat="44.19772" lon="5.70572">
        <ele>1306.079</ele>
        <time>2012-05-04T13:20:13Z</time>
      </trkpt>
      <trkpt lat="44.19786" lon="5.70576">
        <ele>1303.458</ele>
        <time>2012-05-04T13:20:28Z</time>
      </trkpt>
      <trkpt lat="44.19803" lon="5.70578">
        <ele>1300.883</ele>
        <time>2012-05-04T13:20:44Z</time>
      </trkpt>
      <trkpt lat="44.19814" lon="5.70576">
        <ele>1299.33</ele>
        <time>2012-05-04T13:20:56Z</time>
      </trkpt>
      <trkpt lat="44.19836" lon="5.70568">
        <ele>1297.26</ele>
        <time>2012-05-04T13:21:14Z</time>
      </trkpt>
      <trkpt lat="44.19852" lon="5.70562">
        <ele>1294.545</ele>
        <time>2012-05-04T13:21:30Z</time>
      </trkpt>
      <trkpt lat="44.19865" lon="5.7055">
        <ele>1294.214</ele>
        <time>2012-05-04T13:21:44Z</time>
      </trkpt>
      <trkpt lat="44.19867" lon="5.70546">
        <ele>1294.384</ele>
        <time>2012-05-04T13:21:47Z</time>
      </trkpt>
      <trkpt lat="44.19867" lon="5.70543">
        <ele>1294.588</ele>
        <time>2012-05-04T13:21:49Z</time>
      </trkpt>
      <trkpt lat="44.19873" lon="5.70519">
        <ele>1294.287</ele>
        <time>2012-05-04T13:22:05Z</time>
      </trkpt>
      <trkpt lat="44.19876" lon="5.70513">
        <ele>1295.336</ele>
        <time>2012-05-04T13:22:10Z</time>
      </trkpt>
      <trkpt lat="44.19888" lon="5.70489">
        <ele>1293.667</ele>
        <time>2012-05-04T13:22:29Z</time>
      </trkpt>
      <trkpt lat="44.19905" lon="5.70488">
        <ele>1292.045</ele>
        <time>2012-05-04T13:22:43Z</time>
      </trkpt>
      <trkpt lat="44.19922" lon="5.70489">
        <ele>1288.838</ele>
        <time>2012-05-04T13:22:58Z</time>
      </trkpt>
      <trkpt lat="44.1994" lon="5.70485">
        <ele>1287.073</ele>
        <time>2012-05-04T13:23:14Z</time>
      </trkpt>
      <trkpt lat="44.19954" lon="5.70482">
        <ele>1284.961</ele>
        <time>2012-05-04T13:23:26Z</time>
      </trkpt>
      <trkpt lat="44.19964" lon="5.70477">
        <ele>1281.904</ele>
        <time>2012-05-04T13:23:36Z</time>
      </trkpt>
      <trkpt lat="44.19967" lon="5.70475">
        <ele>1280.679</ele>
        <time>2012-05-04T13:23:40Z</time>
      </trkpt>
      <trkpt lat="44.19979" lon="5.70472">
        <ele>1277.338</ele>
        <time>2012-05-04T13:23:51Z</time>
      </trkpt>
      <trkpt lat="44.19995" lon="5.70456">
        <ele>1274.528</ele>
        <time>2012-05-04T13:24:09Z</time>
      </trkpt>
      <trkpt lat="44.20002" lon="5.70452">
        <ele>1271.43</ele>
        <time>2012-05-04T13:24:17Z</time>
      </trkpt>
      <trkpt lat="44.20013" lon="5.70451">
        <ele>1268.086</ele>
        <time>2012-05-04T13:24:27Z</time>
      </trkpt>
      <trkpt lat="44.2002" lon="5.70452">
        <ele>1266.637</ele>
        <time>2012-05-04T13:24:34Z</time>
      </trkpt>
      <trkpt lat="44.20037" lon="5.7044">
        <ele>1263.918</ele>
        <time>2012-05-04T13:24:52Z</time>
      </trkpt>
      <trkpt lat="44.20049" lon="5.70432">
        <ele>1260.702</ele>
        <time>2012-05-04T13:25:05Z</time>
      </trkpt>
      <trkpt lat="44.20062" lon="5.70425">
        <ele>1257.488</ele>
        <time>2012-05-04T13:25:18Z</time>
      </trkpt>
      <trkpt lat="44.20071" lon="5.70417">
        <ele>1254.244</ele>
        <time>2012-05-04T13:25:30Z</time>
      </trkpt>
      <trkpt lat="44.20076" lon="5.70414">
        <ele>1252.333</ele>
        <time>2012-05-04T13:25:36Z</time>
      </trkpt>
      <trkpt lat="44.20077" lon="5.70413">
        <ele>1251.881</ele>
        <time>2012-05-04T13:25:37Z</time>
      </trkpt>
      <trkpt lat="44.20084" lon="5.70408">
        <ele>1250.166</ele>
        <time>2012-05-04T13:25:46Z</time>
      </trkpt>
      <trkpt lat="44.20093" lon="5.70405">
        <ele>1248.103</ele>
        <time>2012-05-04T13:25:57Z</time>
      </trkpt>
      <trkpt lat="44.20103" lon="5.70401">
        <ele>1245.075</ele>
        <time>2012-05-04T13:26:08Z</time>
      </trkpt>
      <trkpt lat="44.20115" lon="5.70397">
        <ele>1243.564</ele>
        <time>2012-05-04T13:26:20Z</time>
      </trkpt>
      <trkpt lat="44.20128" lon="5.70392">
        <ele>1240.444</ele>
        <time>2012-05-04T13:26:33Z</time>
      </trkpt>
      <trkpt lat="44.20131" lon="5.7039">
        <ele>1239.529</ele>
        <time>2012-05-04T13:26:35Z</time>
      </trkpt>
      <trkpt lat="44.20144" lon="5.70391">
        <ele>1238.767</ele>
        <time>2012-05-04T13:26:47Z</time>
      </trkpt>
      <trkpt lat="44.20153" lon="5.70395">
        <ele>1238.169</ele>
        <time>2012-05-04T13:26:56Z</time>
      </trkpt>
      <trkpt lat="44.20157" lon="5.70394">
        <ele>1237.719</ele>
        <time>2012-05-04T13:27:00Z</time>
      </trkpt>
      <trkpt lat="44.20171" lon="5.70389">
        <ele>1234.772</ele>
        <time>2012-05-04T13:27:12Z</time>
      </trkpt>
      <trkpt lat="44.20172" lon="5.70389">
        <ele>1234.771</ele>
        <time>2012-05-04T13:27:13Z</time>
      </trkpt>
      <trkpt lat="44.20178" lon="5.70387">
        <ele>1234.193</ele>
        <time>2012-05-04T13:27:19Z</time>
      </trkpt>
      <trkpt lat="44.20181" lon="5.70387">
        <ele>1232.82</ele>
        <time>2012-05-04T13:27:22Z</time>
      </trkpt>
      <trkpt lat="44.20192" lon="5.70383">
        <ele>1231.103</ele>
        <time>2012-05-04T13:27:32Z</time>
      </trkpt>
      <trkpt lat="44.20193" lon="5.70382">
        <ele>1230.652</ele>
        <time>2012-05-04T13:27:33Z</time>
      </trkpt>
      <trkpt lat="44.20203" lon="5.70373">
        <ele>1229.399</ele>
        <time>2012-05-04T13:27:46Z</time>
      </trkpt>
      <trkpt lat="44.20207" lon="5.70372">
        <ele>1229.062</ele>
        <time>2012-05-04T13:29:07Z</time>
      </trkpt>
      <trkpt lat="44.20211" lon="5.70365">
        <ele>1228.445</ele>
        <time>2012-05-04T13:29:13Z</time>
      </trkpt>
      <trkpt lat="44.20226" lon="5.70351">
        <ele>1226.956</ele>
        <time>2012-05-04T13:29:28Z</time>
      </trkpt>
      <trkpt lat="44.20237" lon="5.70343">
        <ele>1223.744</ele>
        <time>2012-05-04T13:29:39Z</time>
      </trkpt>
      <trkpt lat="44.20242" lon="5.70339">
        <ele>1223.317</ele>
        <time>2012-05-04T13:29:44Z</time>
      </trkpt>
      <trkpt lat="44.20251" lon="5.70328">
        <ele>1221.304</ele>
        <time>2012-05-04T13:29:59Z</time>
      </trkpt>
      <trkpt lat="44.20257" lon="5.70328">
        <ele>1219.329</ele>
        <time>2012-05-04T13:30:06Z</time>
      </trkpt>
      <trkpt lat="44.20264" lon="5.70337">
        <ele>1215.867</ele>
        <time>2012-05-04T13:30:17Z</time>
      </trkpt>
      <trkpt lat="44.20265" lon="5.7034">
        <ele>1215.185</ele>
        <time>2012-05-04T13:30:20Z</time>
      </trkpt>
      <trkpt lat="44.20262" lon="5.70351">
        <ele>1211.95</ele>
        <time>2012-05-04T13:30:30Z</time>
      </trkpt>
      <trkpt lat="44.20266" lon="5.70354">
        <ele>1212.196</ele>
        <time>2012-05-04T13:30:35Z</time>
      </trkpt>
      <trkpt lat="44.20279" lon="5.70356">
        <ele>1209.312</ele>
        <time>2012-05-04T13:30:45Z</time>
      </trkpt>
      <trkpt lat="44.20283" lon="5.70359">
        <ele>1207.768</ele>
        <time>2012-05-04T13:30:53Z</time>
      </trkpt>
      <trkpt lat="44.2029" lon="5.70362">
        <ele>1206.378</ele>
        <time>2012-05-04T13:31:01Z</time>
      </trkpt>
      <trkpt lat="44.20295" lon="5.7036">
        <ele>1205.039</ele>
        <time>2012-05-04T13:31:05Z</time>
      </trkpt>
      <trkpt lat="44.20309" lon="5.7035">
        <ele>1201.548</ele>
        <time>2012-05-04T13:31:20Z</time>
      </trkpt>
      <trkpt lat="44.20319" lon="5.70348">
        <ele>1199.454</ele>
        <time>2012-05-04T13:31:31Z</time>
      </trkpt>
      <trkpt lat="44.20321" lon="5.70347">
        <ele>1199.207</ele>
        <time>2012-05-04T13:31:34Z</time>
      </trkpt>
      <trkpt lat="44.20324" lon="5.70342">
        <ele>1199.191</ele>
        <time>2012-05-04T13:31:46Z</time>
      </trkpt>
      <trkpt lat="44.20328" lon="5.70331">
        <ele>1199.283</ele>
        <time>2012-05-04T13:31:55Z</time>
      </trkpt>
      <trkpt lat="44.20336" lon="5.70325">
        <ele>1196.811</ele>
        <time>2012-05-04T13:32:05Z</time>
      </trkpt>
      <trkpt lat="44.20337" lon="5.70327">
        <ele>1196.891</ele>
        <time>2012-05-04T13:32:09Z</time>
      </trkpt>
      <trkpt lat="44.20339" lon="5.70331">
        <ele>1196.076</ele>
        <time>2012-05-04T13:32:13Z</time>
      </trkpt>
      <trkpt lat="44.20343" lon="5.70332">
        <ele>1196.896</ele>
        <time>2012-05-04T13:32:23Z</time>
      </trkpt>
      <trkpt lat="44.20348" lon="5.70336">
        <ele>1196.506</ele>
        <time>2012-05-04T13:32:30Z</time>
      </trkpt>
      <trkpt lat="44.20353" lon="5.70336">
        <ele>1196.195</ele>
        <time>2012-05-04T13:32:37Z</time>
      </trkpt>
      <trkpt lat="44.20362" lon="5.70325">
        <ele>1194.798</ele>
        <time>2012-05-04T13:32:50Z</time>
      </trkpt>
      <trkpt lat="44.20372" lon="5.70315">
        <ele>1191.729</ele>
        <time>2012-05-04T13:33:02Z</time>
      </trkpt>
      <trkpt lat="44.2038" lon="5.70311">
        <ele>1190.867</ele>
        <time>2012-05-04T13:33:12Z</time>
      </trkpt>
      <trkpt lat="44.20385" lon="5.70308">
        <ele>1190.23</ele>
        <time>2012-05-04T13:33:18Z</time>
      </trkpt>
      <trkpt lat="44.20393" lon="5.70293">
        <ele>1187.034</ele>
        <time>2012-05-04T13:33:31Z</time>
      </trkpt>
      <trkpt lat="44.20396" lon="5.70289">
        <ele>1186.348</ele>
        <time>2012-05-04T13:33:35Z</time>
      </trkpt>
      <trkpt lat="44.20406" lon="5.70283">
        <ele>1183.706</ele>
        <time>2012-05-04T13:33:46Z</time>
      </trkpt>
      <trkpt lat="44.20409" lon="5.70281">
        <ele>1182.386</ele>
        <time>2012-05-04T13:33:49Z</time>
      </trkpt>
      <trkpt lat="44.2041" lon="5.7028">
        <ele>1182.222</ele>
        <time>2012-05-04T13:33:50Z</time>
      </trkpt>
      <trkpt lat="44.20411" lon="5.70278">
        <ele>1181.931</ele>
        <time>2012-05-04T13:33:52Z</time>
      </trkpt>
      <trkpt lat="44.20422" lon="5.70278">
        <ele>1178.641</ele>
        <time>2012-05-04T13:34:03Z</time>
      </trkpt>
      <trkpt lat="44.20431" lon="5.70276">
        <ele>1175.58</ele>
        <time>2012-05-04T13:34:13Z</time>
      </trkpt>
      <trkpt lat="44.20437" lon="5.70277">
        <ele>1172.884</ele>
        <time>2012-05-04T13:34:22Z</time>
      </trkpt>
      <trkpt lat="44.20444" lon="5.70274">
        <ele>1171.102</ele>
        <time>2012-05-04T13:34:33Z</time>
      </trkpt>
      <trkpt lat="44.20458" lon="5.70273">
        <ele>1168.344</ele>
        <time>2012-05-04T13:34:47Z</time>
      </trkpt>
      <trkpt lat="44.20461" lon="5.70273">
        <ele>1167.033</ele>
        <time>2012-05-04T13:34:52Z</time>
      </trkpt>
      <trkpt lat="44.20465" lon="5.70274">
        <ele>1166.772</ele>
        <time>2012-05-04T13:34:54Z</time>
      </trkpt>
      <trkpt lat="44.20467" lon="5.70271">
        <ele>1165.32</ele>
        <time>2012-05-04T13:34:58Z</time>
      </trkpt>
      <trkpt lat="44.20478" lon="5.70261">
        <ele>1162.908</ele>
        <time>2012-05-04T13:35:09Z</time>
      </trkpt>
      <trkpt lat="44.20487" lon="5.70254">
        <ele>1160.498</ele>
        <time>2012-05-04T13:35:17Z</time>
      </trkpt>
      <trkpt lat="44.20489" lon="5.70252">
        <ele>1159.74</ele>
        <time>2012-05-04T13:35:20Z</time>
      </trkpt>
      <trkpt lat="44.20497" lon="5.70253">
        <ele>1157.901</ele>
        <time>2012-05-04T13:35:29Z</time>
      </trkpt>
      <trkpt lat="44.20502" lon="5.70248">
        <ele>1155.94</ele>
        <time>2012-05-04T13:35:36Z</time>
      </trkpt>
      <trkpt lat="44.20509" lon="5.70247">
        <ele>1155.042</ele>
        <time>2012-05-04T13:35:40Z</time>
      </trkpt>
      <trkpt lat="44.20516" lon="5.70248">
        <ele>1154.423</ele>
        <time>2012-05-04T13:35:48Z</time>
      </trkpt>
      <trkpt lat="44.20519" lon="5.70247">
        <ele>1153.747</ele>
        <time>2012-05-04T13:36:00Z</time>
      </trkpt>
      <trkpt lat="44.20528" lon="5.70247">
        <ele>1151.751</ele>
        <time>2012-05-04T13:36:11Z</time>
      </trkpt>
      <trkpt lat="44.20529" lon="5.70249">
        <ele>1150.305</ele>
        <time>2012-05-04T13:36:14Z</time>
      </trkpt>
      <trkpt lat="44.20539" lon="5.70255">
        <ele>1147.115</ele>
        <time>2012-05-04T13:36:26Z</time>
      </trkpt>
      <trkpt lat="44.20543" lon="5.70248">
        <ele>1145.139</ele>
        <time>2012-05-04T13:36:34Z</time>
      </trkpt>
      <trkpt lat="44.20542" lon="5.70237">
        <ele>1143.467</ele>
        <time>2012-05-04T13:36:42Z</time>
      </trkpt>
      <trkpt lat="44.20542" lon="5.70233">
        <ele>1141.527</ele>
        <time>2012-05-04T13:36:47Z</time>
      </trkpt>
      <trkpt lat="44.20541" lon="5.70228">
        <ele>1140.786</ele>
        <time>2012-05-04T13:36:51Z</time>
      </trkpt>
      <trkpt lat="44.20539" lon="5.70227">
        <ele>1139.702</ele>
        <time>2012-05-04T13:36:53Z</time>
      </trkpt>
      <trkpt lat="44.20539" lon="5.70225">
        <ele>1139.195</ele>
        <time>2012-05-04T13:36:54Z</time>
      </trkpt>
      <trkpt lat="44.2054" lon="5.70221">
        <ele>1138.65</ele>
        <time>2012-05-04T13:37:06Z</time>
      </trkpt>
      <trkpt lat="44.20543" lon="5.70222">
        <ele>1137.881</ele>
        <time>2012-05-04T13:37:18Z</time>
      </trkpt>
      <trkpt lat="44.20547" lon="5.70222">
        <ele>1136.357</ele>
        <time>2012-05-04T13:37:23Z</time>
      </trkpt>
      <trkpt lat="44.20559" lon="5.70224">
        <ele>1134.109</ele>
        <time>2012-05-04T13:37:34Z</time>
      </trkpt>
      <trkpt lat="44.20564" lon="5.70229">
        <ele>1132.2</ele>
        <time>2012-05-04T13:37:42Z</time>
      </trkpt>
      <trkpt lat="44.20571" lon="5.70232">
        <ele>1130.742</ele>
        <time>2012-05-04T13:37:50Z</time>
      </trkpt>
      <trkpt lat="44.20577" lon="5.7023">
        <ele>1129.677</ele>
        <time>2012-05-04T13:37:55Z</time>
      </trkpt>
      <trkpt lat="44.20579" lon="5.70227">
        <ele>1129.833</ele>
        <time>2012-05-04T13:37:58Z</time>
      </trkpt>
      <trkpt lat="44.20591" lon="5.70214">
        <ele>1125.926</ele>
        <time>2012-05-04T13:38:12Z</time>
      </trkpt>
      <trkpt lat="44.20592" lon="5.70213">
        <ele>1125.928</ele>
        <time>2012-05-04T13:38:13Z</time>
      </trkpt>
      <trkpt lat="44.20603" lon="5.70209">
        <ele>1123.6</ele>
        <time>2012-05-04T13:38:24Z</time>
      </trkpt>
      <trkpt lat="44.20614" lon="5.70203">
        <ele>1121.23</ele>
        <time>2012-05-04T13:38:35Z</time>
      </trkpt>
      <trkpt lat="44.20621" lon="5.70204">
        <ele>1120.129</ele>
        <time>2012-05-04T13:38:42Z</time>
      </trkpt>
      <trkpt lat="44.20633" lon="5.70204">
        <ele>1116.667</ele>
        <time>2012-05-04T13:38:58Z</time>
      </trkpt>
      <trkpt lat="44.20642" lon="5.70204">
        <ele>1114.443</ele>
        <time>2012-05-04T13:39:05Z</time>
      </trkpt>
      <trkpt lat="44.20646" lon="5.70206">
        <ele>1114.217</ele>
        <time>2012-05-04T13:39:15Z</time>
      </trkpt>
      <trkpt lat="44.20651" lon="5.70207">
        <ele>1113.749</ele>
        <time>2012-05-04T13:39:41Z</time>
      </trkpt>
      <trkpt lat="44.20654" lon="5.70209">
        <ele>1114.255</ele>
        <time>2012-05-04T13:39:44Z</time>
      </trkpt>
      <trkpt lat="44.20661" lon="5.70209">
        <ele>1114.531</ele>
        <time>2012-05-04T13:39:55Z</time>
      </trkpt>
      <trkpt lat="44.20669" lon="5.7021">
        <ele>1113.448</ele>
        <time>2012-05-04T13:40:06Z</time>
      </trkpt>
      <trkpt lat="44.20682" lon="5.70211">
        <ele>1110.551</ele>
        <time>2012-05-04T13:40:19Z</time>
      </trkpt>
      <trkpt lat="44.20692" lon="5.70213">
        <ele>1108.826</ele>
        <time>2012-05-04T13:40:28Z</time>
      </trkpt>
      <trkpt lat="44.20711" lon="5.70212">
        <ele>1105.817</ele>
        <time>2012-05-04T13:40:44Z</time>
      </trkpt>
      <trkpt lat="44.20724" lon="5.70206">
        <ele>1103.902</ele>
        <time>2012-05-04T13:40:56Z</time>
      </trkpt>
      <trkpt lat="44.20737" lon="5.702">
        <ele>1101.235</ele>
        <time>2012-05-04T13:41:09Z</time>
      </trkpt>
      <trkpt lat="44.20738" lon="5.702">
        <ele>1101.233</ele>
        <time>2012-05-04T13:41:10Z</time>
      </trkpt>
      <trkpt lat="44.2074" lon="5.70197">
        <ele>1100.835</ele>
        <time>2012-05-04T13:41:12Z</time>
      </trkpt>
      <trkpt lat="44.20745" lon="5.70195">
        <ele>1100.236</ele>
        <time>2012-05-04T13:41:17Z</time>
      </trkpt>
      <trkpt lat="44.2076" lon="5.70189">
        <ele>1097.655</ele>
        <time>2012-05-04T13:41:29Z</time>
      </trkpt>
      <trkpt lat="44.20763" lon="5.70188">
        <ele>1096.963</ele>
        <time>2012-05-04T13:41:32Z</time>
      </trkpt>
      <trkpt lat="44.20766" lon="5.70201">
        <ele>1093.881</ele>
        <time>2012-05-04T13:41:45Z</time>
      </trkpt>
      <trkpt lat="44.20769" lon="5.70209">
        <ele>1092.394</ele>
        <time>2012-05-04T13:41:51Z</time>
      </trkpt>
      <trkpt lat="44.20775" lon="5.7022">
        <ele>1091.626</ele>
        <time>2012-05-04T13:41:57Z</time>
      </trkpt>
      <trkpt lat="44.20781" lon="5.70238">
        <ele>1088.824</ele>
        <time>2012-05-04T13:42:11Z</time>
      </trkpt>
      <trkpt lat="44.20787" lon="5.70251">
        <ele>1087.151</ele>
        <time>2012-05-04T13:42:20Z</time>
      </trkpt>
      <trkpt lat="44.20789" lon="5.70252">
        <ele>1086.424</ele>
        <time>2012-05-04T13:42:22Z</time>
      </trkpt>
      <trkpt lat="44.20802" lon="5.70253">
        <ele>1084.615</ele>
        <time>2012-05-04T13:42:31Z</time>
      </trkpt>
      <trkpt lat="44.20815" lon="5.70259">
        <ele>1082.129</ele>
        <time>2012-05-04T13:42:42Z</time>
      </trkpt>
      <trkpt lat="44.20822" lon="5.70271">
        <ele>1080.094</ele>
        <time>2012-05-04T13:42:53Z</time>
      </trkpt>
      <trkpt lat="44.20838" lon="5.7028">
        <ele>1076.344</ele>
        <time>2012-05-04T13:43:07Z</time>
      </trkpt>
      <trkpt lat="44.20842" lon="5.70279">
        <ele>1076.014</ele>
        <time>2012-05-04T13:43:10Z</time>
      </trkpt>
      <trkpt lat="44.20849" lon="5.70273">
        <ele>1074.78</ele>
        <time>2012-05-04T13:43:16Z</time>
      </trkpt>
      <trkpt lat="44.20855" lon="5.70272">
        <ele>1073.261</ele>
        <time>2012-05-04T13:43:26Z</time>
      </trkpt>
      <trkpt lat="44.20866" lon="5.70275">
        <ele>1071.203</ele>
        <time>2012-05-04T13:43:41Z</time>
      </trkpt>
      <trkpt lat="44.20869" lon="5.70275">
        <ele>1071.01</ele>
        <time>2012-05-04T13:43:43Z</time>
      </trkpt>
      <trkpt lat="44.20878" lon="5.70277">
        <ele>1068.912</ele>
        <time>2012-05-04T13:43:53Z</time>
      </trkpt>
      <trkpt lat="44.20892" lon="5.70278">
        <ele>1066.331</ele>
        <time>2012-05-04T13:44:04Z</time>
      </trkpt>
      <trkpt lat="44.20902" lon="5.7028">
        <ele>1064.883</ele>
        <time>2012-05-04T13:44:13Z</time>
      </trkpt>
      <trkpt lat="44.20913" lon="5.70282">
        <ele>1062.757</ele>
        <time>2012-05-04T13:44:20Z</time>
      </trkpt>
      <trkpt lat="44.20918" lon="5.70281">
        <ele>1061.571</ele>
        <time>2012-05-04T13:44:24Z</time>
      </trkpt>
      <trkpt lat="44.20927" lon="5.70279">
        <ele>1059.94</ele>
        <time>2012-05-04T13:44:33Z</time>
      </trkpt>
      <trkpt lat="44.20933" lon="5.70276">
        <ele>1057.802</ele>
        <time>2012-05-04T13:44:40Z</time>
      </trkpt>
      <trkpt lat="44.20933" lon="5.70277">
        <ele>1057.168</ele>
        <time>2012-05-04T13:44:42Z</time>
      </trkpt>
      <trkpt lat="44.20945" lon="5.70278">
        <ele>1055.604</ele>
        <time>2012-05-04T13:44:52Z</time>
      </trkpt>
      <trkpt lat="44.20949" lon="5.70275">
        <ele>1054.549</ele>
        <time>2012-05-04T13:44:56Z</time>
      </trkpt>
      <trkpt lat="44.20952" lon="5.70269">
        <ele>1054.027</ele>
        <time>2012-05-04T13:45:00Z</time>
      </trkpt>
      <trkpt lat="44.20953" lon="5.70258">
        <ele>1051.982</ele>
        <time>2012-05-04T13:45:09Z</time>
      </trkpt>
      <trkpt lat="44.20947" lon="5.70252">
        <ele>1050.658</ele>
        <time>2012-05-04T13:45:16Z</time>
      </trkpt>
      <trkpt lat="44.20938" lon="5.70244">
        <ele>1048.733</ele>
        <time>2012-05-04T13:45:27Z</time>
      </trkpt>
      <trkpt lat="44.20931" lon="5.70231">
        <ele>1047.573</ele>
        <time>2012-05-04T13:45:37Z</time>
      </trkpt>
      <trkpt lat="44.2093" lon="5.70228">
        <ele>1047.265</ele>
        <time>2012-05-04T13:45:39Z</time>
      </trkpt>
      <trkpt lat="44.20927" lon="5.70214">
        <ele>1045.714</ele>
        <time>2012-05-04T13:45:49Z</time>
      </trkpt>
      <trkpt lat="44.20925" lon="5.70193">
        <ele>1043.714</ele>
        <time>2012-05-04T13:46:01Z</time>
      </trkpt>
      <trkpt lat="44.20927" lon="5.70183">
        <ele>1043.058</ele>
        <time>2012-05-04T13:46:05Z</time>
      </trkpt>
      <trkpt lat="44.20931" lon="5.70176">
        <ele>1042.621</ele>
        <time>2012-05-04T13:46:09Z</time>
      </trkpt>
      <trkpt lat="44.20934" lon="5.70174">
        <ele>1042.66</ele>
        <time>2012-05-04T13:46:11Z</time>
      </trkpt>
      <trkpt lat="44.20945" lon="5.70178">
        <ele>1040.908</ele>
        <time>2012-05-04T13:46:20Z</time>
      </trkpt>
      <trkpt lat="44.20948" lon="5.70192">
        <ele>1040.265</ele>
        <time>2012-05-04T13:46:30Z</time>
      </trkpt>
      <trkpt lat="44.20953" lon="5.702">
        <ele>1039.692</ele>
        <time>2012-05-04T13:46:36Z</time>
      </trkpt>
      <trkpt lat="44.20957" lon="5.70211">
        <ele>1039.37</ele>
        <time>2012-05-04T13:46:45Z</time>
      </trkpt>
      <trkpt lat="44.20959" lon="5.70213">
        <ele>1039.061</ele>
        <time>2012-05-04T13:46:47Z</time>
      </trkpt>
      <trkpt lat="44.20968" lon="5.70224">
        <ele>1037.69</ele>
        <time>2012-05-04T13:46:56Z</time>
      </trkpt>
      <trkpt lat="44.20983" lon="5.70234">
        <ele>1036.101</ele>
        <time>2012-05-04T13:47:08Z</time>
      </trkpt>
      <trkpt lat="44.20985" lon="5.7024">
        <ele>1035.335</ele>
        <time>2012-05-04T13:47:11Z</time>
      </trkpt>
      <trkpt lat="44.20986" lon="5.70242">
        <ele>1035.278</ele>
        <time>2012-05-04T13:47:13Z</time>
      </trkpt>
      <trkpt lat="44.20986" lon="5.70255">
        <ele>1034.544</ele>
        <time>2012-05-04T13:47:21Z</time>
      </trkpt>
      <trkpt lat="44.20989" lon="5.70263">
        <ele>1034.262</ele>
        <time>2012-05-04T13:47:27Z</time>
      </trkpt>
      <trkpt lat="44.20997" lon="5.7027">
        <ele>1033.571</ele>
        <time>2012-05-04T13:47:37Z</time>
      </trkpt>
      <trkpt lat="44.20999" lon="5.70269">
        <ele>1034.005</ele>
        <time>2012-05-04T13:47:39Z</time>
      </trkpt>
      <trkpt lat="44.21013" lon="5.70264">
        <ele>1032.997</ele>
        <time>2012-05-04T13:47:48Z</time>
      </trkpt>
      <trkpt lat="44.21029" lon="5.7026">
        <ele>1031.488</ele>
        <time>2012-05-04T13:48:01Z</time>
      </trkpt>
      <trkpt lat="44.21043" lon="5.70258">
        <ele>1030.165</ele>
        <time>2012-05-04T13:48:13Z</time>
      </trkpt>
      <trkpt lat="44.21051" lon="5.70255">
        <ele>1030.254</ele>
        <time>2012-05-04T13:48:21Z</time>
      </trkpt>
      <trkpt lat="44.21065" lon="5.70251">
        <ele>1029.62</ele>
        <time>2012-05-04T13:48:32Z</time>
      </trkpt>
      <trkpt lat="44.21069" lon="5.70248">
        <ele>1029.865</ele>
        <time>2012-05-04T13:48:37Z</time>
      </trkpt>
      <trkpt lat="44.21086" lon="5.70247">
        <ele>1029.669</ele>
        <time>2012-05-04T13:48:50Z</time>
      </trkpt>
      <trkpt lat="44.21099" lon="5.70248">
        <ele>1029.151</ele>
        <time>2012-05-04T13:49:02Z</time>
      </trkpt>
      <trkpt lat="44.2111" lon="5.70249">
        <ele>1028.196</ele>
        <time>2012-05-04T13:49:14Z</time>
      </trkpt>
      <trkpt lat="44.21122" lon="5.70247">
        <ele>1028.794</ele>
        <time>2012-05-04T13:49:22Z</time>
      </trkpt>
      <trkpt lat="44.21127" lon="5.70247">
        <ele>1027.583</ele>
        <time>2012-05-04T13:49:26Z</time>
      </trkpt>
      <trkpt lat="44.21133" lon="5.70245">
        <ele>1027.022</ele>
        <time>2012-05-04T13:49:32Z</time>
      </trkpt>
      <trkpt lat="44.21147" lon="5.7024">
        <ele>1025.647</ele>
        <time>2012-05-04T13:49:42Z</time>
      </trkpt>
      <trkpt lat="44.21158" lon="5.70224">
        <ele>1023.418</ele>
        <time>2012-05-04T13:49:54Z</time>
      </trkpt>
      <trkpt lat="44.21167" lon="5.70217">
        <ele>1022.718</ele>
        <time>2012-05-04T13:50:01Z</time>
      </trkpt>
      <trkpt lat="44.21177" lon="5.70211">
        <ele>1021.725</ele>
        <time>2012-05-04T13:50:11Z</time>
      </trkpt>
      <trkpt lat="44.21181" lon="5.70207">
        <ele>1021.952</ele>
        <time>2012-05-04T13:50:18Z</time>
      </trkpt>
      <trkpt lat="44.21189" lon="5.702">
        <ele>1021.609</ele>
        <time>2012-05-04T13:50:27Z</time>
      </trkpt>
      <trkpt lat="44.21191" lon="5.70197">
        <ele>1020.926</ele>
        <time>2012-05-04T13:50:30Z</time>
      </trkpt>
      <trkpt lat="44.21195" lon="5.70185">
        <ele>1020.32</ele>
        <time>2012-05-04T13:50:38Z</time>
      </trkpt>
      <trkpt lat="44.21209" lon="5.70176">
        <ele>1020.236</ele>
        <time>2012-05-04T13:50:49Z</time>
      </trkpt>
      <trkpt lat="44.2121" lon="5.70176">
        <ele>1020.229</ele>
        <time>2012-05-04T13:50:50Z</time>
      </trkpt>
      <trkpt lat="44.21224" lon="5.70174">
        <ele>1019.332</ele>
        <time>2012-05-04T13:50:59Z</time>
      </trkpt>
      <trkpt lat="44.21226" lon="5.70177">
        <ele>1018.951</ele>
        <time>2012-05-04T13:51:02Z</time>
      </trkpt>
      <trkpt lat="44.2123" lon="5.70187">
        <ele>1017.194</ele>
        <time>2012-05-04T13:51:11Z</time>
      </trkpt>
      <trkpt lat="44.21244" lon="5.70188">
        <ele>1015.006</ele>
        <time>2012-05-04T13:51:24Z</time>
      </trkpt>
      <trkpt lat="44.21247" lon="5.70172">
        <ele>1013.402</ele>
        <time>2012-05-04T13:51:34Z</time>
      </trkpt>
      <trkpt lat="44.21247" lon="5.70158">
        <ele>1011.686</ele>
        <time>2012-05-04T13:51:43Z</time>
      </trkpt>
      <trkpt lat="44.21248" lon="5.70142">
        <ele>1009.254</ele>
        <time>2012-05-04T13:51:57Z</time>
      </trkpt>
      <trkpt lat="44.2125" lon="5.70133">
        <ele>1006.614</ele>
        <time>2012-05-04T13:52:07Z</time>
      </trkpt>
      <trkpt lat="44.2125" lon="5.70118">
        <ele>1004.067</ele>
        <time>2012-05-04T13:52:17Z</time>
      </trkpt>
      <trkpt lat="44.21249" lon="5.70109">
        <ele>1002.4</ele>
        <time>2012-05-04T13:52:23Z</time>
      </trkpt>
      <trkpt lat="44.21243" lon="5.701">
        <ele>1000.795</ele>
        <time>2012-05-04T13:52:34Z</time>
      </trkpt>
      <trkpt lat="44.21245" lon="5.70086">
        <ele>998.901</ele>
        <time>2012-05-04T13:52:42Z</time>
      </trkpt>
      <trkpt lat="44.21247" lon="5.7008">
        <ele>997.602</ele>
        <time>2012-05-04T13:52:46Z</time>
      </trkpt>
      <trkpt lat="44.21253" lon="5.70065">
        <ele>995.635</ele>
        <time>2012-05-04T13:52:57Z</time>
      </trkpt>
      <trkpt lat="44.21255" lon="5.70062">
        <ele>994.232</ele>
        <time>2012-05-04T13:53:00Z</time>
      </trkpt>
      <trkpt lat="44.21257" lon="5.70061">
        <ele>993.793</ele>
        <time>2012-05-04T13:53:02Z</time>
      </trkpt>
      <trkpt lat="44.21262" lon="5.70051">
        <ele>991.307</ele>
        <time>2012-05-04T13:53:12Z</time>
      </trkpt>
      <trkpt lat="44.21265" lon="5.70045">
        <ele>989.862</ele>
        <time>2012-05-04T13:53:19Z</time>
      </trkpt>
      <trkpt lat="44.21264" lon="5.70043">
        <ele>989.559</ele>
        <time>2012-05-04T13:53:22Z</time>
      </trkpt>
      <trkpt lat="44.21266" lon="5.70032">
        <ele>988.296</ele>
        <time>2012-05-04T13:53:32Z</time>
      </trkpt>
      <trkpt lat="44.21266" lon="5.70023">
        <ele>986.904</ele>
        <time>2012-05-04T13:53:40Z</time>
      </trkpt>
      <trkpt lat="44.21266" lon="5.70012">
        <ele>984.868</ele>
        <time>2012-05-04T13:53:50Z</time>
      </trkpt>
      <trkpt lat="44.21264" lon="5.70001">
        <ele>983.666</ele>
        <time>2012-05-04T13:54:01Z</time>
      </trkpt>
      <trkpt lat="44.21264" lon="5.69999">
        <ele>982.807</ele>
        <time>2012-05-04T13:54:03Z</time>
      </trkpt>
      <trkpt lat="44.21259" lon="5.69992">
        <ele>981.652</ele>
        <time>2012-05-04T13:54:09Z</time>
      </trkpt>
      <trkpt lat="44.2126" lon="5.69989">
        <ele>981.619</ele>
        <time>2012-05-04T13:54:23Z</time>
      </trkpt>
      <trkpt lat="44.2126" lon="5.69987">
        <ele>981.099</ele>
        <time>2012-05-04T13:54:24Z</time>
      </trkpt>
      <trkpt lat="44.21257" lon="5.69976">
        <ele>978.525</ele>
        <time>2012-05-04T13:54:36Z</time>
      </trkpt>
      <trkpt lat="44.21258" lon="5.69969">
        <ele>978.222</ele>
        <time>2012-05-04T13:54:39Z</time>
      </trkpt>
      <trkpt lat="44.21257" lon="5.69959">
        <ele>976.81</ele>
        <time>2012-05-04T13:54:46Z</time>
      </trkpt>
      <trkpt lat="44.21254" lon="5.69951">
        <ele>975.175</ele>
        <time>2012-05-04T13:54:52Z</time>
      </trkpt>
      <trkpt lat="44.21254" lon="5.69948">
        <ele>973.47</ele>
        <time>2012-05-04T13:54:54Z</time>
      </trkpt>
      <trkpt lat="44.21251" lon="5.69941">
        <ele>972.557</ele>
        <time>2012-05-04T13:55:00Z</time>
      </trkpt>
      <trkpt lat="44.2125" lon="5.69931">
        <ele>972.888</ele>
        <time>2012-05-04T13:55:08Z</time>
      </trkpt>
      <trkpt lat="44.21249" lon="5.6993">
        <ele>972.054</ele>
        <time>2012-05-04T13:55:11Z</time>
      </trkpt>
      <trkpt lat="44.2125" lon="5.69925">
        <ele>971.231</ele>
        <time>2012-05-04T13:55:21Z</time>
      </trkpt>
      <trkpt lat="44.21256" lon="5.69914">
        <ele>969.456</ele>
        <time>2012-05-04T13:55:32Z</time>
      </trkpt>
      <trkpt lat="44.2126" lon="5.69909">
        <ele>968.681</ele>
        <time>2012-05-04T13:55:36Z</time>
      </trkpt>
      <trkpt lat="44.21262" lon="5.69897">
        <ele>967.523</ele>
        <time>2012-05-04T13:55:48Z</time>
      </trkpt>
      <trkpt lat="44.21264" lon="5.69893">
        <ele>967.691</ele>
        <time>2012-05-04T13:55:53Z</time>
      </trkpt>
      <trkpt lat="44.2127" lon="5.69876">
        <ele>965.255</ele>
        <time>2012-05-04T13:56:08Z</time>
      </trkpt>
      <trkpt lat="44.2127" lon="5.69875">
        <ele>964.988</ele>
        <time>2012-05-04T13:56:09Z</time>
      </trkpt>
      <trkpt lat="44.2127" lon="5.6987">
        <ele>964.653</ele>
        <time>2012-05-04T13:56:13Z</time>
      </trkpt>
      <trkpt lat="44.21271" lon="5.69867">
        <ele>964.297</ele>
        <time>2012-05-04T13:56:15Z</time>
      </trkpt>
      <trkpt lat="44.21274" lon="5.69859">
        <ele>963.704</ele>
        <time>2012-05-04T13:56:22Z</time>
      </trkpt>
      <trkpt lat="44.21275" lon="5.69858">
        <ele>964.064</ele>
        <time>2012-05-04T13:56:27Z</time>
      </trkpt>
      <trkpt lat="44.21274" lon="5.69849">
        <ele>963.337</ele>
        <time>2012-05-04T13:56:31Z</time>
      </trkpt>
      <trkpt lat="44.21275" lon="5.69841">
        <ele>962.747</ele>
        <time>2012-05-04T13:56:37Z</time>
      </trkpt>
      <trkpt lat="44.21277" lon="5.69835">
        <ele>963.192</ele>
        <time>2012-05-04T13:56:41Z</time>
      </trkpt>
      <trkpt lat="44.21279" lon="5.69828">
        <ele>961.789</ele>
        <time>2012-05-04T13:56:47Z</time>
      </trkpt>
      <trkpt lat="44.21273" lon="5.69823">
        <ele>962.205</ele>
        <time>2012-05-04T13:56:55Z</time>
      </trkpt>
      <trkpt lat="44.21278" lon="5.69819">
        <ele>961.327</ele>
        <time>2012-05-04T13:56:58Z</time>
      </trkpt>
      <trkpt lat="44.21295" lon="5.69814">
        <ele>959.377</ele>
        <time>2012-05-04T13:57:10Z</time>
      </trkpt>
      <trkpt lat="44.213" lon="5.69806">
        <ele>957.924</ele>
        <time>2012-05-04T13:57:19Z</time>
      </trkpt>
      <trkpt lat="44.21309" lon="5.69798">
        <ele>956.471</ele>
        <time>2012-05-04T13:57:30Z</time>
      </trkpt>
      <trkpt lat="44.2132" lon="5.6979">
        <ele>954.611</ele>
        <time>2012-05-04T13:57:39Z</time>
      </trkpt>
      <trkpt lat="44.2132" lon="5.69789">
        <ele>954.453</ele>
        <time>2012-05-04T13:57:41Z</time>
      </trkpt>
      <trkpt lat="44.21324" lon="5.6978">
        <ele>952.926</ele>
        <time>2012-05-04T13:57:47Z</time>
      </trkpt>
      <trkpt lat="44.21328" lon="5.69778">
        <ele>951.511</ele>
        <time>2012-05-04T13:57:52Z</time>
      </trkpt>
      <trkpt lat="44.2134" lon="5.6977">
        <ele>949.699</ele>
        <time>2012-05-04T13:58:01Z</time>
      </trkpt>
      <trkpt lat="44.21344" lon="5.69754">
        <ele>947.827</ele>
        <time>2012-05-04T13:58:13Z</time>
      </trkpt>
      <trkpt lat="44.21345" lon="5.69746">
        <ele>946.786</ele>
        <time>2012-05-04T13:58:19Z</time>
      </trkpt>
      <trkpt lat="44.21351" lon="5.69738">
        <ele>945.819</ele>
        <time>2012-05-04T13:58:28Z</time>
      </trkpt>
      <trkpt lat="44.21352" lon="5.6973">
        <ele>945.499</ele>
        <time>2012-05-04T13:58:34Z</time>
      </trkpt>
      <trkpt lat="44.21352" lon="5.69727">
        <ele>945.201</ele>
        <time>2012-05-04T13:58:36Z</time>
      </trkpt>
      <trkpt lat="44.21357" lon="5.69722">
        <ele>944.291</ele>
        <time>2012-05-04T13:58:41Z</time>
      </trkpt>
      <trkpt lat="44.21366" lon="5.69707">
        <ele>942.374</ele>
        <time>2012-05-04T13:58:52Z</time>
      </trkpt>
      <trkpt lat="44.21367" lon="5.69704">
        <ele>942.046</ele>
        <time>2012-05-04T13:58:54Z</time>
      </trkpt>
      <trkpt lat="44.21372" lon="5.69698">
        <ele>940.548</ele>
        <time>2012-05-04T13:59:06Z</time>
      </trkpt>
      <trkpt lat="44.21374" lon="5.69699">
        <ele>941.049</ele>
        <time>2012-05-04T13:59:14Z</time>
      </trkpt>
      <trkpt lat="44.21379" lon="5.69698">
        <ele>941.598</ele>
        <time>2012-05-04T13:59:22Z</time>
      </trkpt>
      <trkpt lat="44.21382" lon="5.69691">
        <ele>939.919</ele>
        <time>2012-05-04T13:59:31Z</time>
      </trkpt>
      <trkpt lat="44.21383" lon="5.69686">
        <ele>938.968</ele>
        <time>2012-05-04T13:59:37Z</time>
      </trkpt>
      <trkpt lat="44.21386" lon="5.69684">
        <ele>938.879</ele>
        <time>2012-05-04T13:59:39Z</time>
      </trkpt>
      <trkpt lat="44.21391" lon="5.69681">
        <ele>937.981</ele>
        <time>2012-05-04T13:59:48Z</time>
      </trkpt>
      <trkpt lat="44.21389" lon="5.69675">
        <ele>937.72</ele>
        <time>2012-05-04T13:59:51Z</time>
      </trkpt>
      <trkpt lat="44.21392" lon="5.6967">
        <ele>936.179</ele>
        <time>2012-05-04T14:00:02Z</time>
      </trkpt>
      <trkpt lat="44.21396" lon="5.69664">
        <ele>935.632</ele>
        <time>2012-05-04T14:00:08Z</time>
      </trkpt>
      <trkpt lat="44.21397" lon="5.69661">
        <ele>935.269</ele>
        <time>2012-05-04T14:00:10Z</time>
      </trkpt>
      <trkpt lat="44.21396" lon="5.69652">
        <ele>934.888</ele>
        <time>2012-05-04T14:00:17Z</time>
      </trkpt>
      <trkpt lat="44.21395" lon="5.69646">
        <ele>935.296</ele>
        <time>2012-05-04T14:00:40Z</time>
      </trkpt>
      <trkpt lat="44.21393" lon="5.69642">
        <ele>934.5</ele>
        <time>2012-05-04T14:00:43Z</time>
      </trkpt>
      <trkpt lat="44.2139" lon="5.69632">
        <ele>934.486</ele>
        <time>2012-05-04T14:00:51Z</time>
      </trkpt>
      <trkpt lat="44.21389" lon="5.69627">
        <ele>934.794</ele>
        <time>2012-05-04T14:00:55Z</time>
      </trkpt>
      <trkpt lat="44.21387" lon="5.69617">
        <ele>934.849</ele>
        <time>2012-05-04T14:01:01Z</time>
      </trkpt>
      <trkpt lat="44.21385" lon="5.69613">
        <ele>933.969</ele>
        <time>2012-05-04T14:01:03Z</time>
      </trkpt>
      <trkpt lat="44.21385" lon="5.69593">
        <ele>933.597</ele>
        <time>2012-05-04T14:01:15Z</time>
      </trkpt>
      <trkpt lat="44.21386" lon="5.69592">
        <ele>933.716</ele>
        <time>2012-05-04T14:01:28Z</time>
      </trkpt>
    </trkseg>
  </trk>
</gpx>